Wetterdaten: Dienstag, 14.02.2023
Datum Zeit Temp. Aussen Temp. o. S. Temp +5cm Feuchte Auss Luftdruck Regen Sonnenschein Regendauer Solar Windben Empfang
14.02.2023 00:00 6,6 C 5,6 C 1,7 C 85 % 1035,4 hPa 0,0 l/m 0 min 0 min 0 W/m 6,4 km/h (2 Bft) 100,00 %
14.02.2023 00:02 6,6 C 5,6 C 1,7 C 85 % 1035,5 hPa 0,0 l/m 0 min 0 min 0 W/m 3,2 km/h (1 Bft) 97,67 %
14.02.2023 00:04 6,6 C 5,6 C 1,7 C 85 % 1035,4 hPa 0,0 l/m 0 min 0 min 0 W/m 6,4 km/h (2 Bft) 100,00 %
14.02.2023 00:07 6,5 C 5,6 C 1,7 C 85 % 1035,5 hPa 0,0 l/m 0 min 0 min 0 W/m 6,4 km/h (2 Bft) 98,57 %
14.02.2023 00:08 6,5 C 5,6 C 1,7 C 85 % 1035,5 hPa 0,0 l/m 0 min 0 min 0 W/m 6,4 km/h (2 Bft) 100,00 %
14.02.2023 00:12 6,5 C 5,6 C 1,7 C 85 % 1035,5 hPa 0,0 l/m 0 min 0 min 0 W/m 3,2 km/h (1 Bft) 95,65 %
14.02.2023 00:14 6,5 C 5,6 C 1,7 C 85 % 1035,5 hPa 0,0 l/m 0 min 0 min 0 W/m 3,2 km/h (1 Bft) 100,00 %
14.02.2023 00:16 6,4 C 5,6 C 1,7 C 85 % 1035,5 hPa 0,0 l/m 0 min 0 min 0 W/m 3,2 km/h (1 Bft) 100,00 %
14.02.2023 00:18 6,4 C 5,6 C 1,7 C 85 % 1035,4 hPa 0,0 l/m 0 min 0 min 0 W/m 6,4 km/h (2 Bft) 100,00 %
14.02.2023 00:20 6,4 C 5,6 C 1,7 C 85 % 1035,5 hPa 0,0 l/m 0 min 0 min 0 W/m 3,2 km/h (1 Bft) 100,00 %
14.02.2023 00:22 6,4 C 5,6 C 1,7 C 85 % 1035,5 hPa 0,0 l/m 0 min 0 min 0 W/m 6,4 km/h (2 Bft) 100,00 %
14.02.2023 00:24 6,3 C 5,6 C 1,7 C 85 % 1035,5 hPa 0,0 l/m 0 min 0 min 0 W/m 6,4 km/h (2 Bft) 97,87 %
14.02.2023 00:26 6,3 C 5,0 C 1,7 C 85 % 1035,5 hPa 0,0 l/m 0 min 0 min 0 W/m 3,2 km/h (1 Bft) 97,83 %
14.02.2023 00:28 6,3 C 5,0 C 1,7 C 85 % 1035,5 hPa 0,0 l/m 0 min 0 min 0 W/m 6,4 km/h (2 Bft) 97,87 %
14.02.2023 00:30 6,3 C 5,0 C 1,7 C 85 % 1035,5 hPa 0,0 l/m 0 min 0 min 0 W/m 3,2 km/h (1 Bft) 100,00 %
14.02.2023 00:32 6,3 C 5,0 C 1,7 C 85 % 1035,5 hPa 0,0 l/m 0 min 0 min 0 W/m 6,4 km/h (2 Bft) 100,00 %
14.02.2023 00:34 6,2 C 5,0 C 1,7 C 86 % 1035,5 hPa 0,0 l/m 0 min 0 min 0 W/m 6,4 km/h (2 Bft) 100,00 %
14.02.2023 00:36 6,2 C 5,0 C 1,7 C 86 % 1035,5 hPa 0,0 l/m 0 min 0 min 0 W/m 6,4 km/h (2 Bft) 100,00 %
14.02.2023 00:38 6,2 C 5,0 C 1,7 C 86 % 1035,5 hPa 0,0 l/m 0 min 0 min 0 W/m 3,2 km/h (1 Bft) 100,00 %
14.02.2023 00:40 6,2 C 5,0 C 1,7 C 85 % 1035,5 hPa 0,0 l/m 0 min 0 min 0 W/m 12,9 km/h (3 Bft) 100,00 %
14.02.2023 00:42 6,2 C 5,0 C 1,7 C 86 % 1035,5 hPa 0,0 l/m 0 min 0 min 0 W/m 6,4 km/h (2 Bft) 97,87 %
14.02.2023 00:44 6,1 C 5,0 C 1,7 C 86 % 1035,4 hPa 0,0 l/m 0 min 0 min 0 W/m 6,4 km/h (2 Bft) 100,00 %
14.02.2023 00:46 6,1 C 5,0 C 1,7 C 86 % 1035,5 hPa 0,0 l/m 0 min 0 min 0 W/m 6,4 km/h (2 Bft) 100,00 %
14.02.2023 00:48 6,1 C 5,0 C 1,7 C 86 % 1035,5 hPa 0,0 l/m 0 min 0 min 0 W/m 6,4 km/h (2 Bft) 100,00 %
14.02.2023 00:50 6,1 C 5,0 C 1,7 C 86 % 1035,5 hPa 0,0 l/m 0 min 0 min 0 W/m 12,9 km/h (3 Bft) 100,00 %
14.02.2023 00:52 6,1 C 5,0 C 1,7 C 86 % 1035,5 hPa 0,0 l/m 0 min 0 min 0 W/m 6,4 km/h (2 Bft) 100,00 %
14.02.2023 00:54 6,1 C 5,0 C 1,7 C 86 % 1035,5 hPa 0,0 l/m 0 min 0 min 0 W/m 6,4 km/h (2 Bft) 100,00 %
14.02.2023 00:56 6,1 C 5,0 C 1,7 C 86 % 1035,4 hPa 0,0 l/m 0 min 0 min 0 W/m 6,4 km/h (2 Bft) 100,00 %
14.02.2023 00:58 6,1 C 5,0 C 1,7 C 86 % 1035,5 hPa 0,0 l/m 0 min 0 min 0 W/m 6,4 km/h (2 Bft) 100,00 %
14.02.2023 01:00 6,0 C 5,0 C 1,7 C 86 % 1035,5 hPa 0,0 l/m 0 min 0 min 0 W/m 6,4 km/h (2 Bft) 95,74 %
14.02.2023 01:02 6,0 C 5,0 C 1,7 C 86 % 1035,5 hPa 0,0 l/m 0 min 0 min 0 W/m 6,4 km/h (2 Bft) 97,87 %
14.02.2023 01:04 6,0 C 5,0 C 1,7 C 86 % 1035,5 hPa 0,0 l/m 0 min 0 min 0 W/m 12,9 km/h (3 Bft) 95,65 %
14.02.2023 01:06 5,9 C 5,0 C 1,7 C 86 % 1035,5 hPa 0,0 l/m 0 min 0 min 0 W/m 12,9 km/h (3 Bft) 96,61 %
14.02.2023 01:08 5,9 C 5,0 C 1,7 C 86 % 1035,5 hPa 0,0 l/m 0 min 0 min 0 W/m 6,4 km/h (2 Bft) 91,43 %
14.02.2023 01:10 5,9 C 5,0 C 1,7 C 86 % 1035,5 hPa 0,0 l/m 0 min 0 min 0 W/m 6,4 km/h (2 Bft) 95,74 %
14.02.2023 01:12 5,9 C 5,0 C 1,7 C 86 % 1035,5 hPa 0,0 l/m 0 min 0 min 0 W/m 6,4 km/h (2 Bft) 93,62 %
14.02.2023 01:14 5,9 C 5,0 C 1,7 C 86 % 1035,5 hPa 0,0 l/m 0 min 0 min 0 W/m 12,9 km/h (3 Bft) 93,62 %
14.02.2023 01:16 5,9 C 5,0 C 1,7 C 86 % 1035,4 hPa 0,0 l/m 0 min 0 min 0 W/m 12,9 km/h (3 Bft) 95,74 %
14.02.2023 01:18 5,9 C 5,0 C 1,7 C 86 % 1035,4 hPa 0,0 l/m 0 min 0 min 0 W/m 9,7 km/h (2 Bft) 93,48 %
14.02.2023 01:20 5,9 C 5,0 C 1,7 C 86 % 1035,4 hPa 0,0 l/m 0 min 0 min 0 W/m 6,4 km/h (2 Bft) 93,62 %
14.02.2023 01:22 5,8 C 5,0 C 1,7 C 86 % 1035,3 hPa 0,0 l/m 0 min 0 min 0 W/m 9,7 km/h (2 Bft) 95,74 %
14.02.2023 01:24 5,8 C 5,0 C 1,7 C 87 % 1035,4 hPa 0,0 l/m 0 min 0 min 0 W/m 12,9 km/h (3 Bft) 91,49 %
14.02.2023 01:26 5,9 C 5,0 C 1,7 C 87 % 1035,4 hPa 0,0 l/m 0 min 0 min 0 W/m 12,9 km/h (3 Bft) 93,62 %
14.02.2023 01:28 5,9 C 5,0 C 1,7 C 87 % 1035,4 hPa 0,0 l/m 0 min 0 min 0 W/m 12,9 km/h (3 Bft) 91,49 %
14.02.2023 01:30 5,9 C 5,0 C 1,7 C 87 % 1035,4 hPa 0,0 l/m 0 min 0 min 0 W/m 12,9 km/h (3 Bft) 91,30 %
14.02.2023 01:32 5,9 C 5,0 C 1,7 C 87 % 1035,4 hPa 0,0 l/m 0 min 0 min 0 W/m 12,9 km/h (3 Bft) 91,49 %
14.02.2023 01:34 5,8 C 5,0 C 1,7 C 87 % 1035,4 hPa 0,0 l/m 0 min 0 min 0 W/m 12,9 km/h (3 Bft) 93,62 %
14.02.2023 01:36 5,9 C 5,0 C 1,7 C 87 % 1035,4 hPa 0,0 l/m 0 min 0 min 0 W/m 12,9 km/h (3 Bft) 93,62 %
14.02.2023 01:41 5,8 C 5,0 C 1,7 C 87 % 1035,4 hPa 0,0 l/m 0 min 0 min 0 W/m 16,1 km/h (3 Bft) 96,83 %
14.02.2023 01:44 5,8 C 5,0 C 1,7 C 87 % 1035,4 hPa 0,0 l/m 0 min 0 min 0 W/m 16,1 km/h (3 Bft) 95,71 %
14.02.2023 01:46 5,8 C 5,0 C 1,7 C 87 % 1035,3 hPa 0,0 l/m 0 min 0 min 0 W/m 16,1 km/h (3 Bft) 95,74 %
14.02.2023 01:48 5,8 C 5,0 C 1,7 C 87 % 1035,3 hPa 0,0 l/m 0 min 0 min 0 W/m 16,1 km/h (3 Bft) 95,74 %
14.02.2023 01:50 5,8 C 5,0 C 1,7 C 87 % 1035,3 hPa 0,0 l/m 0 min 0 min 0 W/m 6,4 km/h (2 Bft) 91,49 %
14.02.2023 01:52 5,8 C 5,0 C 1,7 C 87 % 1035,4 hPa 0,0 l/m 0 min 0 min 0 W/m 6,4 km/h (2 Bft) 96,23 %
14.02.2023 01:54 5,7 C 5,0 C 1,7 C 87 % 1035,3 hPa 0,0 l/m 0 min 0 min 0 W/m 12,9 km/h (3 Bft) 93,48 %
14.02.2023 01:56 5,7 C 5,0 C 1,7 C 87 % 1035,4 hPa 0,0 l/m 0 min 0 min 0 W/m 12,9 km/h (3 Bft) 97,62 %
14.02.2023 01:58 5,7 C 5,0 C 1,7 C 87 % 1035,4 hPa 0,0 l/m 0 min 0 min 0 W/m 12,9 km/h (3 Bft) 94,23 %
14.02.2023 02:00 5,7 C 5,0 C 1,7 C 87 % 1035,3 hPa 0,0 l/m 0 min 0 min 0 W/m 12,9 km/h (3 Bft) 95,74 %
14.02.2023 02:02 5,7 C 5,0 C 1,7 C 87 % 1035,4 hPa 0,0 l/m 0 min 0 min 0 W/m 12,9 km/h (3 Bft) 100,00 %
14.02.2023 02:04 5,7 C 4,4 C 1,1 C 87 % 1035,4 hPa 0,0 l/m 0 min 0 min 0 W/m 6,4 km/h (2 Bft) 100,00 %
14.02.2023 02:06 5,6 C 4,4 C 1,1 C 87 % 1035,4 hPa 0,0 l/m 0 min 0 min 0 W/m 6,4 km/h (2 Bft) 100,00 %
14.02.2023 02:08 5,6 C 4,4 C 1,1 C 87 % 1035,4 hPa 0,0 l/m 0 min 0 min 0 W/m 6,4 km/h (2 Bft) 97,83 %
14.02.2023 02:10 5,6 C 4,4 C 1,1 C 87 % 1035,4 hPa 0,0 l/m 0 min 0 min 0 W/m 6,4 km/h (2 Bft) 100,00 %
14.02.2023 02:14 5,6 C 4,4 C 1,1 C 87 % 1035,4 hPa 0,0 l/m 0 min 0 min 0 W/m 6,4 km/h (2 Bft) 100,00 %
14.02.2023 02:16 5,6 C 4,4 C 1,1 C 87 % 1035,4 hPa 0,0 l/m 0 min 0 min 0 W/m 6,4 km/h (2 Bft) 95,74 %
14.02.2023 02:18 5,5 C 4,4 C 1,1 C 87 % 1035,4 hPa 0,0 l/m 0 min 0 min 0 W/m 6,4 km/h (2 Bft) 95,74 %
14.02.2023 02:20 5,5 C 4,4 C 1,1 C 87 % 1035,4 hPa 0,0 l/m 0 min 0 min 0 W/m 6,4 km/h (2 Bft) 97,87 %
14.02.2023 02:22 5,4 C 4,4 C 1,1 C 87 % 1035,4 hPa 0,0 l/m 0 min 0 min 0 W/m 6,4 km/h (2 Bft) 100,00 %
14.02.2023 02:24 5,4 C 4,4 C 1,1 C 87 % 1035,4 hPa 0,0 l/m 0 min 0 min 0 W/m 6,4 km/h (2 Bft) 97,87 %
14.02.2023 02:26 5,4 C 4,4 C 1,1 C 87 % 1035,4 hPa 0,0 l/m 0 min 0 min 0 W/m 6,4 km/h (2 Bft) 100,00 %
14.02.2023 02:28 5,4 C 4,4 C 1,1 C 87 % 1035,4 hPa 0,0 l/m 0 min 0 min 0 W/m 6,4 km/h (2 Bft) 95,74 %
14.02.2023 02:30 5,4 C 4,4 C 1,1 C 87 % 1035,3 hPa 0,0 l/m 0 min 0 min 0 W/m 6,4 km/h (2 Bft) 100,00 %
14.02.2023 02:32 5,3 C 4,4 C 1,1 C 87 % 1035,3 hPa 0,0 l/m 0 min 0 min 0 W/m 6,4 km/h (2 Bft) 100,00 %
14.02.2023 02:34 5,3 C 4,4 C 1,1 C 87 % 1035,4 hPa 0,0 l/m 0 min 0 min 0 W/m 6,4 km/h (2 Bft) 44,74 %
14.02.2023 02:36 5,3 C 4,4 C 1,1 C 87 % 1035,4 hPa 0,0 l/m 0 min 0 min 0 W/m 6,4 km/h (2 Bft) 97,87 %
14.02.2023 02:38 5,3 C 4,4 C 1,1 C 87 % 1035,4 hPa 0,0 l/m 0 min 0 min 0 W/m 6,4 km/h (2 Bft) 100,00 %
14.02.2023 02:40 5,3 C 4,4 C 1,1 C 87 % 1035,4 hPa 0,0 l/m 0 min 0 min 0 W/m 6,4 km/h (2 Bft) 97,83 %
14.02.2023 02:42 5,3 C 4,4 C 1,1 C 87 % 1035,4 hPa 0,0 l/m 0 min 0 min 0 W/m 3,2 km/h (1 Bft) 100,00 %
14.02.2023 02:44 5,2 C 4,4 C 1,1 C 87 % 1035,3 hPa 0,0 l/m 0 min 0 min 0 W/m 6,4 km/h (2 Bft) 97,87 %
14.02.2023 02:46 5,2 C 4,4 C 1,1 C 88 % 1035,3 hPa 0,0 l/m 0 min 0 min 0 W/m 12,9 km/h (3 Bft) 100,00 %
14.02.2023 02:48 5,2 C 4,4 C 1,1 C 88 % 1035,3 hPa 0,0 l/m 0 min 0 min 0 W/m 12,9 km/h (3 Bft) 100,00 %
14.02.2023 02:50 5,2 C 4,4 C 1,1 C 88 % 1035,3 hPa 0,0 l/m 0 min 0 min 0 W/m 6,4 km/h (2 Bft) 97,87 %
14.02.2023 02:52 5,2 C 4,4 C 1,1 C 88 % 1035,2 hPa 0,0 l/m 0 min 0 min 0 W/m 6,4 km/h (2 Bft) 97,83 %
14.02.2023 02:54 5,2 C 4,4 C 1,1 C 88 % 1035,3 hPa 0,0 l/m 0 min 0 min 0 W/m 6,4 km/h (2 Bft) 97,87 %
14.02.2023 02:56 5,1 C 4,4 C 1,1 C 88 % 1035,2 hPa 0,0 l/m 0 min 0 min 0 W/m 12,9 km/h (3 Bft) 97,87 %
14.02.2023 02:58 5,1 C 4,4 C 1,1 C 88 % 1035,2 hPa 0,0 l/m 0 min 0 min 0 W/m 6,4 km/h (2 Bft) 93,62 %
14.02.2023 03:00 5,1 C 4,4 C 1,1 C 88 % 1035,2 hPa 0,0 l/m 0 min 0 min 0 W/m 6,4 km/h (2 Bft) 97,87 %
14.02.2023 03:02 5,1 C 4,4 C 1,1 C 88 % 1035,3 hPa 0,0 l/m 0 min 0 min 0 W/m 6,4 km/h (2 Bft) 97,87 %
14.02.2023 03:04 5,1 C 4,4 C 1,1 C 88 % 1035,2 hPa 0,0 l/m 0 min 0 min 0 W/m 6,4 km/h (2 Bft) 95,74 %
14.02.2023 03:06 5,1 C 4,4 C 1,1 C 88 % 1035,2 hPa 0,0 l/m 0 min 0 min 0 W/m 6,4 km/h (2 Bft) 96,55 %
14.02.2023 03:08 5,1 C 4,4 C 1,1 C 88 % 1035,1 hPa 0,0 l/m 0 min 0 min 0 W/m 12,9 km/h (3 Bft) 97,14 %
14.02.2023 03:10 5,1 C 4,4 C 1,1 C 88 % 1035,2 hPa 0,0 l/m 0 min 0 min 0 W/m 12,9 km/h (3 Bft) 97,87 %
14.02.2023 03:12 5,1 C 4,4 C 1,1 C 88 % 1035,1 hPa 0,0 l/m 0 min 0 min 0 W/m 12,9 km/h (3 Bft) 97,87 %
14.02.2023 03:14 5,1 C 4,4 C 1,1 C 88 % 1035,1 hPa 0,0 l/m 0 min 0 min 0 W/m 12,9 km/h (3 Bft) 97,87 %
14.02.2023 03:16 5,0 C 4,4 C 1,1 C 88 % 1035,1 hPa 0,0 l/m 0 min 0 min 0 W/m 12,9 km/h (3 Bft) 97,87 %
14.02.2023 03:18 5,0 C 4,4 C 1,1 C 88 % 1035,1 hPa 0,0 l/m 0 min 0 min 0 W/m 12,9 km/h (3 Bft) 97,87 %
14.02.2023 03:20 5,0 C 4,4 C 1,1 C 88 % 1035,0 hPa 0,0 l/m 0 min 0 min 0 W/m 16,1 km/h (3 Bft) 100,00 %
14.02.2023 03:22 5,0 C 4,4 C 1,1 C 88 % 1035,0 hPa 0,0 l/m 0 min 0 min 0 W/m 12,9 km/h (3 Bft) 100,00 %
14.02.2023 03:24 5,0 C 4,4 C 1,1 C 88 % 1035,0 hPa 0,0 l/m 0 min 0 min 0 W/m 6,4 km/h (2 Bft) 97,87 %
14.02.2023 03:26 5,0 C 4,4 C 1,1 C 88 % 1035,0 hPa 0,0 l/m 0 min 0 min 0 W/m 9,7 km/h (2 Bft) 97,87 %
14.02.2023 03:28 5,0 C 4,4 C 1,1 C 88 % 1035,0 hPa 0,0 l/m 0 min 0 min 0 W/m 12,9 km/h (3 Bft) 100,00 %
14.02.2023 03:30 5,0 C 4,4 C 1,1 C 88 % 1035,0 hPa 0,0 l/m 0 min 0 min 0 W/m 12,9 km/h (3 Bft) 100,00 %
14.02.2023 03:32 4,9 C 4,4 C 1,1 C 88 % 1035,0 hPa 0,0 l/m 0 min 0 min 0 W/m 12,9 km/h (3 Bft) 97,83 %
14.02.2023 03:34 4,9 C 4,4 C 1,1 C 88 % 1035,1 hPa 0,0 l/m 0 min 0 min 0 W/m 12,9 km/h (3 Bft) 72,34 %
14.02.2023 03:36 4,9 C 3,9 C 1,1 C 88 % 1035,1 hPa 0,0 l/m 0 min 0 min 0 W/m 12,9 km/h (3 Bft) 80,56 %
14.02.2023 03:38 4,9 C 3,9 C 1,1 C 88 % 1035,0 hPa 0,0 l/m 0 min 0 min 0 W/m 12,9 km/h (3 Bft) 100,00 %
14.02.2023 03:40 4,9 C 3,9 C 1,1 C 88 % 1035,1 hPa 0,0 l/m 0 min 0 min 0 W/m 6,4 km/h (2 Bft) 97,87 %
14.02.2023 03:42 4,9 C 3,9 C 0,6 C 88 % 1035,1 hPa 0,0 l/m 0 min 0 min 0 W/m 3,2 km/h (1 Bft) 97,87 %
14.02.2023 03:44 4,9 C 3,9 C 0,6 C 88 % 1035,0 hPa 0,0 l/m 0 min 0 min 0 W/m 6,4 km/h (2 Bft) 97,83 %
14.02.2023 03:46 4,9 C 3,9 C 0,6 C 88 % 1035,0 hPa 0,0 l/m 0 min 0 min 0 W/m 6,4 km/h (2 Bft) 95,74 %
14.02.2023 03:48 4,8 C 3,9 C 0,6 C 88 % 1035,0 hPa 0,0 l/m 0 min 0 min 0 W/m 6,4 km/h (2 Bft) 97,87 %
14.02.2023 03:50 4,8 C 3,9 C 0,6 C 88 % 1035,0 hPa 0,0 l/m 0 min 0 min 0 W/m 6,4 km/h (2 Bft) 97,87 %
14.02.2023 03:52 4,8 C 3,9 C 0,6 C 88 % 1035,0 hPa 0,0 l/m 0 min 0 min 0 W/m 6,4 km/h (2 Bft) 95,74 %
14.02.2023 03:54 4,8 C 3,9 C 0,6 C 88 % 1035,0 hPa 0,0 l/m 0 min 0 min 0 W/m 6,4 km/h (2 Bft) 97,87 %
14.02.2023 03:56 4,8 C 3,9 C 0,6 C 88 % 1034,9 hPa 0,0 l/m 0 min 0 min 0 W/m 6,4 km/h (2 Bft) 97,87 %
14.02.2023 03:58 4,7 C 3,9 C 0,6 C 88 % 1034,9 hPa 0,0 l/m 0 min 0 min 0 W/m 12,9 km/h (3 Bft) 97,83 %
14.02.2023 04:00 4,7 C 3,9 C 0,6 C 88 % 1034,9 hPa 0,0 l/m 0 min 0 min 0 W/m 6,4 km/h (2 Bft) 97,87 %
14.02.2023 04:02 4,7 C 3,9 C 0,6 C 88 % 1034,9 hPa 0,0 l/m 0 min 0 min 0 W/m 6,4 km/h (2 Bft) 97,87 %
14.02.2023 04:04 4,7 C 3,3 C 0,6 C 88 % 1034,9 hPa 0,0 l/m 0 min 0 min 0 W/m 3,2 km/h (1 Bft) 97,87 %
14.02.2023 04:06 4,6 C 3,3 C 0,6 C 88 % 1034,9 hPa 0,0 l/m 0 min 0 min 0 W/m 12,9 km/h (3 Bft) 98,31 %
14.02.2023 04:08 4,6 C 3,3 C 0,6 C 88 % 1034,9 hPa 0,0 l/m 0 min 0 min 0 W/m 6,4 km/h (2 Bft) 97,14 %
14.02.2023 04:10 4,6 C 3,3 C 0,6 C 88 % 1034,9 hPa 0,0 l/m 0 min 0 min 0 W/m 3,2 km/h (1 Bft) 97,83 %
14.02.2023 04:12 4,6 C 3,3 C 0,6 C 88 % 1034,9 hPa 0,0 l/m 0 min 0 min 0 W/m 6,4 km/h (2 Bft) 97,87 %
14.02.2023 04:14 4,6 C 3,3 C 0,6 C 88 % 1034,9 hPa 0,0 l/m 0 min 0 min 0 W/m 6,4 km/h (2 Bft) 95,74 %
14.02.2023 04:16 4,5 C 3,3 C 0,6 C 88 % 1034,9 hPa 0,0 l/m 0 min 0 min 0 W/m 6,4 km/h (2 Bft) 93,75 %
14.02.2023 04:18 4,5 C 3,3 C 0,6 C 88 % 1034,9 hPa 0,0 l/m 0 min 0 min 0 W/m 12,9 km/h (3 Bft) 93,62 %
14.02.2023 04:20 4,5 C 3,3 C 0,6 C 88 % 1035,0 hPa 0,0 l/m 0 min 0 min 0 W/m 6,4 km/h (2 Bft) 95,74 %
14.02.2023 04:22 4,5 C 3,3 C 0,6 C 88 % 1034,9 hPa 0,0 l/m 0 min 0 min 0 W/m 12,9 km/h (3 Bft) 95,74 %
14.02.2023 04:24 4,4 C 3,9 C 0,6 C 89 % 1034,9 hPa 0,0 l/m 0 min 0 min 0 W/m 12,9 km/h (3 Bft) 97,83 %
14.02.2023 04:26 4,4 C 3,9 C 0,6 C 89 % 1034,9 hPa 0,0 l/m 0 min 0 min 0 W/m 12,9 km/h (3 Bft) 95,74 %
14.02.2023 04:28 4,4 C 3,9 C 0,6 C 89 % 1035,0 hPa 0,0 l/m 0 min 0 min 0 W/m 12,9 km/h (3 Bft) 93,62 %
14.02.2023 04:30 4,4 C 3,9 C 0,6 C 89 % 1034,9 hPa 0,0 l/m 0 min 0 min 0 W/m 12,9 km/h (3 Bft) 93,62 %
14.02.2023 04:32 4,4 C 3,9 C 0,6 C 89 % 1035,0 hPa 0,0 l/m 0 min 0 min 0 W/m 9,7 km/h (2 Bft) 97,87 %
14.02.2023 04:34 4,4 C 3,3 C 0,6 C 89 % 1034,9 hPa 0,0 l/m 0 min 0 min 0 W/m 6,4 km/h (2 Bft) 50,00 %
14.02.2023 04:36 4,4 C 3,3 C 0,6 C 89 % 1035,0 hPa 0,0 l/m 0 min 0 min 0 W/m 6,4 km/h (2 Bft) 95,74 %
14.02.2023 04:38 4,4 C 3,3 C 0,6 C 89 % 1035,0 hPa 0,0 l/m 0 min 0 min 0 W/m 6,4 km/h (2 Bft) 95,65 %
14.02.2023 04:40 4,4 C 3,3 C 0,6 C 89 % 1035,0 hPa 0,0 l/m 0 min 0 min 0 W/m 9,7 km/h (2 Bft) 95,74 %
14.02.2023 04:42 4,4 C 3,3 C 0,6 C 89 % 1035,0 hPa 0,0 l/m 0 min 0 min 0 W/m 6,4 km/h (2 Bft) 93,62 %
14.02.2023 04:44 4,3 C 3,3 C 0,6 C 89 % 1035,0 hPa 0,0 l/m 0 min 0 min 0 W/m 12,9 km/h (3 Bft) 95,74 %
14.02.2023 04:46 4,3 C 3,3 C 0,6 C 89 % 1035,0 hPa 0,0 l/m 0 min 0 min 0 W/m 6,4 km/h (2 Bft) 95,74 %
14.02.2023 04:48 4,3 C 3,3 C 0,6 C 89 % 1035,1 hPa 0,0 l/m 0 min 0 min 0 W/m 12,9 km/h (3 Bft) 95,74 %
14.02.2023 04:50 4,3 C 3,9 C 0,6 C 89 % 1035,1 hPa 0,0 l/m 0 min 0 min 0 W/m 12,9 km/h (3 Bft) 95,65 %
14.02.2023 04:52 4,3 C 3,3 C 0,6 C 89 % 1035,0 hPa 0,0 l/m 0 min 0 min 0 W/m 12,9 km/h (3 Bft) 93,62 %
14.02.2023 04:54 4,3 C 3,3 C 0,6 C 89 % 1035,0 hPa 0,0 l/m 0 min 0 min 0 W/m 6,4 km/h (2 Bft) 95,74 %
14.02.2023 04:56 4,3 C 3,3 C 0,6 C 89 % 1035,0 hPa 0,0 l/m 0 min 0 min 0 W/m 6,4 km/h (2 Bft) 95,74 %
14.02.2023 04:58 4,3 C 3,3 C 0,6 C 89 % 1035,0 hPa 0,0 l/m 0 min 0 min 0 W/m 19,3 km/h (3 Bft) 95,74 %
14.02.2023 05:00 4,3 C 3,3 C 0,6 C 89 % 1035,0 hPa 0,0 l/m 0 min 0 min 0 W/m 12,9 km/h (3 Bft) 93,62 %
14.02.2023 05:02 4,3 C 3,3 C 0,6 C 89 % 1035,0 hPa 0,0 l/m 0 min 0 min 0 W/m 12,9 km/h (3 Bft) 95,65 %
14.02.2023 05:04 4,3 C 3,3 C 0,6 C 89 % 1035,0 hPa 0,0 l/m 0 min 0 min 0 W/m 12,9 km/h (3 Bft) 95,74 %
14.02.2023 05:06 4,3 C 3,3 C 0,6 C 89 % 1035,0 hPa 0,0 l/m 0 min 0 min 0 W/m 12,9 km/h (3 Bft) 96,61 %
14.02.2023 05:08 4,3 C 3,3 C 0,6 C 89 % 1035,0 hPa 0,0 l/m 0 min 0 min 0 W/m 12,9 km/h (3 Bft) 97,14 %
14.02.2023 05:10 4,3 C 3,3 C 0,6 C 89 % 1035,0 hPa 0,0 l/m 0 min 0 min 0 W/m 16,1 km/h (3 Bft) 97,87 %
14.02.2023 05:12 4,3 C 3,3 C 0,6 C 90 % 1035,0 hPa 0,0 l/m 0 min 0 min 0 W/m 12,9 km/h (3 Bft) 100,00 %
14.02.2023 05:14 4,3 C 3,3 C 0,6 C 90 % 1035,0 hPa 0,0 l/m 0 min 0 min 0 W/m 12,9 km/h (3 Bft) 100,00 %
14.02.2023 05:16 4,2 C 3,3 C 0,6 C 90 % 1035,0 hPa 0,0 l/m 0 min 0 min 0 W/m 12,9 km/h (3 Bft) 100,00 %
14.02.2023 05:18 4,2 C 3,3 C 0,6 C 90 % 1035,0 hPa 0,0 l/m 0 min 0 min 0 W/m 12,9 km/h (3 Bft) 95,74 %
14.02.2023 05:20 4,2 C 3,3 C 0,6 C 90 % 1035,0 hPa 0,0 l/m 0 min 0 min 0 W/m 12,9 km/h (3 Bft) 97,87 %
14.02.2023 05:22 4,2 C 3,3 C 0,6 C 90 % 1035,0 hPa 0,0 l/m 0 min 0 min 0 W/m 9,7 km/h (2 Bft) 100,00 %
14.02.2023 05:24 4,2 C 3,3 C 0,0 C 90 % 1035,0 hPa 0,0 l/m 0 min 0 min 0 W/m 6,4 km/h (2 Bft) 100,00 %
14.02.2023 05:26 4,2 C 3,3 C 0,0 C 90 % 1035,0 hPa 0,0 l/m 0 min 0 min 0 W/m 6,4 km/h (2 Bft) 95,74 %
14.02.2023 05:28 4,2 C 3,3 C 0,0 C 90 % 1035,0 hPa 0,0 l/m 0 min 0 min 0 W/m 12,9 km/h (3 Bft) 100,00 %
14.02.2023 05:30 4,2 C 3,3 C 0,0 C 90 % 1035,0 hPa 0,0 l/m 0 min 0 min 0 W/m 12,9 km/h (3 Bft) 100,00 %
14.02.2023 05:32 4,2 C 3,3 C 0,0 C 90 % 1035,0 hPa 0,0 l/m 0 min 0 min 0 W/m 16,1 km/h (3 Bft) 100,00 %
14.02.2023 05:34 4,2 C 3,3 C 0,0 C 90 % 1035,0 hPa 0,0 l/m 0 min 0 min 0 W/m 12,9 km/h (3 Bft) 100,00 %
14.02.2023 05:36 4,2 C 3,3 C 0,0 C 90 % 1034,9 hPa 0,0 l/m 0 min 0 min 0 W/m 6,4 km/h (2 Bft) 100,00 %
14.02.2023 05:38 4,1 C 3,3 C 0,0 C 90 % 1034,9 hPa 0,0 l/m 0 min 0 min 0 W/m 12,9 km/h (3 Bft) 100,00 %
14.02.2023 05:40 4,1 C 3,3 C 0,0 C 90 % 1034,9 hPa 0,0 l/m 0 min 0 min 0 W/m 12,9 km/h (3 Bft) 100,00 %
14.02.2023 05:42 4,1 C 3,3 C 0,0 C 90 % 1034,9 hPa 0,0 l/m 0 min 0 min 0 W/m 6,4 km/h (2 Bft) 100,00 %
14.02.2023 05:44 4,1 C 3,3 C 0,0 C 90 % 1034,8 hPa 0,0 l/m 0 min 0 min 0 W/m 12,9 km/h (3 Bft) 100,00 %
14.02.2023 05:46 4,1 C 3,3 C 0,0 C 90 % 1034,8 hPa 0,0 l/m 0 min 0 min 0 W/m 12,9 km/h (3 Bft) 100,00 %
14.02.2023 05:48 4,1 C 3,3 C 0,0 C 90 % 1034,8 hPa 0,0 l/m 0 min 0 min 0 W/m 6,4 km/h (2 Bft) 100,00 %
14.02.2023 05:50 4,1 C 3,3 C 0,0 C 90 % 1034,8 hPa 0,0 l/m 0 min 0 min 0 W/m 6,4 km/h (2 Bft) 97,87 %
14.02.2023 05:52 4,1 C 3,3 C 0,0 C 90 % 1034,7 hPa 0,0 l/m 0 min 0 min 0 W/m 6,4 km/h (2 Bft) 100,00 %
14.02.2023 05:54 4,1 C 3,3 C 0,0 C 90 % 1034,7 hPa 0,0 l/m 0 min 0 min 0 W/m 12,9 km/h (3 Bft) 100,00 %
14.02.2023 05:56 4,1 C 3,3 C 0,0 C 90 % 1034,7 hPa 0,0 l/m 0 min 0 min 0 W/m 12,9 km/h (3 Bft) 97,83 %
14.02.2023 05:58 4,1 C 3,3 C 0,0 C 90 % 1034,7 hPa 0,0 l/m 0 min 0 min 0 W/m 6,4 km/h (2 Bft) 100,00 %
14.02.2023 06:00 4,0 C 3,3 C 0,0 C 90 % 1034,7 hPa 0,0 l/m 0 min 0 min 0 W/m 6,4 km/h (2 Bft) 95,74 %
14.02.2023 06:02 4,0 C 3,3 C 0,0 C 90 % 1034,6 hPa 0,0 l/m 0 min 0 min 0 W/m 12,9 km/h (3 Bft) 93,62 %
14.02.2023 06:04 4,0 C 3,3 C 0,0 C 90 % 1034,6 hPa 0,0 l/m 0 min 0 min 0 W/m 9,7 km/h (2 Bft) 95,74 %
14.02.2023 06:07 3,9 C 3,3 C 0,0 C 90 % 1034,6 hPa 0,0 l/m 0 min 0 min 0 W/m 16,1 km/h (3 Bft) 97,14 %
14.02.2023 06:08 3,9 C 3,3 C 0,0 C 90 % 1034,6 hPa 0,0 l/m 0 min 0 min 0 W/m 6,4 km/h (2 Bft) 91,30 %
14.02.2023 06:12 3,9 C 3,3 C 0,0 C 90 % 1034,6 hPa 0,0 l/m 0 min 0 min 0 W/m 12,9 km/h (3 Bft) 98,18 %
14.02.2023 06:14 3,9 C 3,3 C 0,0 C 90 % 1034,5 hPa 0,0 l/m 0 min 0 min 0 W/m 9,7 km/h (2 Bft) 97,87 %
14.02.2023 06:16 3,9 C 3,3 C 0,0 C 90 % 1034,6 hPa 0,0 l/m 0 min 0 min 0 W/m 16,1 km/h (3 Bft) 97,87 %
14.02.2023 06:18 3,9 C 3,3 C 0,0 C 90 % 1034,5 hPa 0,0 l/m 0 min 0 min 0 W/m 6,4 km/h (2 Bft) 97,87 %
14.02.2023 06:20 3,9 C 2,8 C 0,0 C 90 % 1034,5 hPa 0,0 l/m 0 min 0 min 0 W/m 6,4 km/h (2 Bft) 95,74 %
14.02.2023 06:22 3,9 C 2,8 C 0,0 C 90 % 1034,6 hPa 0,0 l/m 0 min 0 min 0 W/m 6,4 km/h (2 Bft) 97,87 %
14.02.2023 06:24 3,9 C 2,8 C 0,0 C 90 % 1034,5 hPa 0,0 l/m 0 min 0 min 0 W/m 6,4 km/h (2 Bft) 93,48 %
14.02.2023 06:26 3,8 C 2,8 C 0,0 C 90 % 1034,5 hPa 0,0 l/m 0 min 0 min 0 W/m 6,4 km/h (2 Bft) 95,74 %
14.02.2023 06:28 3,8 C 2,8 C 0,0 C 90 % 1034,5 hPa 0,0 l/m 0 min 0 min 0 W/m 6,4 km/h (2 Bft) 95,74 %
14.02.2023 06:30 3,8 C 2,8 C 0,0 C 90 % 1034,5 hPa 0,0 l/m 0 min 0 min 0 W/m 6,4 km/h (2 Bft) 95,74 %
14.02.2023 06:32 3,8 C 2,8 C 0,0 C 90 % 1034,5 hPa 0,0 l/m 0 min 0 min 0 W/m 12,9 km/h (3 Bft) 93,62 %
14.02.2023 06:34 3,8 C 2,8 C 0,0 C 90 % 1034,5 hPa 0,0 l/m 0 min 0 min 0 W/m 16,1 km/h (3 Bft) 95,74 %
14.02.2023 06:36 3,8 C 2,8 C 0,0 C 90 % 1034,5 hPa 0,0 l/m 0 min 0 min 0 W/m 6,4 km/h (2 Bft) 93,48 %
14.02.2023 06:38 3,8 C 2,8 C 0,0 C 91 % 1034,5 hPa 0,0 l/m 0 min 0 min 0 W/m 12,9 km/h (3 Bft) 97,87 %
14.02.2023 06:40 3,8 C 2,8 C 0,0 C 91 % 1034,5 hPa 0,0 l/m 0 min 0 min 0 W/m 12,9 km/h (3 Bft) 95,74 %
14.02.2023 06:42 3,7 C 2,8 C 0,0 C 91 % 1034,5 hPa 0,0 l/m 0 min 0 min 0 W/m 12,9 km/h (3 Bft) 100,00 %
14.02.2023 06:44 3,8 C 2,8 C 0,0 C 91 % 1034,5 hPa 0,0 l/m 0 min 0 min 0 W/m 9,7 km/h (2 Bft) 97,87 %
14.02.2023 06:46 3,7 C 2,8 C 0,0 C 91 % 1034,5 hPa 0,0 l/m 0 min 0 min 0 W/m 12,9 km/h (3 Bft) 97,87 %
14.02.2023 06:48 3,7 C 2,8 C 0,0 C 91 % 1034,5 hPa 0,0 l/m 0 min 0 min 0 W/m 6,4 km/h (2 Bft) 95,74 %
14.02.2023 06:50 3,7 C 2,8 C 0,0 C 91 % 1034,5 hPa 0,0 l/m 0 min 0 min 0 W/m 6,4 km/h (2 Bft) 97,83 %
14.02.2023 06:52 3,7 C 2,8 C 0,0 C 91 % 1034,4 hPa 0,0 l/m 0 min 0 min 0 W/m 6,4 km/h (2 Bft) 100,00 %
14.02.2023 06:54 3,7 C 2,8 C 0,0 C 91 % 1034,5 hPa 0,0 l/m 0 min 0 min 0 W/m 9,7 km/h (2 Bft) 97,87 %
14.02.2023 06:56 3,7 C 2,8 C 0,0 C 91 % 1034,5 hPa 0,0 l/m 0 min 0 min 0 W/m 6,4 km/h (2 Bft) 97,87 %
14.02.2023 06:58 3,7 C 2,8 C 0,0 C 91 % 1034,5 hPa 0,0 l/m 0 min 0 min 0 W/m 12,9 km/h (3 Bft) 97,87 %
14.02.2023 07:00 3,7 C 2,8 C 0,0 C 91 % 1034,5 hPa 0,0 l/m 0 min 0 min 0 W/m 12,9 km/h (3 Bft) 100,00 %
14.02.2023 07:02 3,7 C 2,8 C 0,0 C 91 % 1034,5 hPa 0,0 l/m 0 min 0 min 0 W/m 12,9 km/h (3 Bft) 100,00 %
14.02.2023 07:04 3,7 C 2,8 C 0,0 C 91 % 1034,5 hPa 0,0 l/m 0 min 0 min 0 W/m 12,9 km/h (3 Bft) 97,87 %
14.02.2023 07:06 3,7 C 2,8 C 0,0 C 91 % 1034,5 hPa 0,0 l/m 0 min 0 min 0 W/m 6,4 km/h (2 Bft) 100,00 %
14.02.2023 07:08 3,7 C 2,8 C 0,0 C 91 % 1034,5 hPa 0,0 l/m 0 min 0 min 0 W/m 12,9 km/h (3 Bft) 100,00 %
14.02.2023 07:10 3,7 C 2,8 C 0,0 C 91 % 1034,5 hPa 0,0 l/m 0 min 0 min 0 W/m 12,9 km/h (3 Bft) 97,87 %
14.02.2023 07:12 3,6 C 2,8 C 0,0 C 91 % 1034,5 hPa 0,0 l/m 0 min 0 min 0 W/m 12,9 km/h (3 Bft) 100,00 %
14.02.2023 07:14 3,7 C 2,8 C 0,0 C 91 % 1034,5 hPa 0,0 l/m 0 min 0 min 0 W/m 16,1 km/h (3 Bft) 100,00 %
14.02.2023 07:16 3,6 C 2,8 C 0,0 C 91 % 1034,5 hPa 0,0 l/m 0 min 0 min 0 W/m 12,9 km/h (3 Bft) 100,00 %
14.02.2023 07:18 3,6 C 2,8 C 0,0 C 91 % 1034,5 hPa 0,0 l/m 0 min 0 min 0 W/m 12,9 km/h (3 Bft) 100,00 %
14.02.2023 07:20 3,6 C 2,8 C 0,0 C 91 % 1034,5 hPa 0,0 l/m 0 min 0 min 0 W/m 12,9 km/h (3 Bft) 100,00 %
14.02.2023 07:22 3,6 C 2,8 C 0,0 C 91 % 1034,6 hPa 0,0 l/m 0 min 0 min 0 W/m 16,1 km/h (3 Bft) 100,00 %
14.02.2023 07:24 3,6 C 2,8 C 0,0 C 91 % 1034,6 hPa 0,0 l/m 0 min 0 min 0 W/m 12,9 km/h (3 Bft) 97,83 %
14.02.2023 07:26 3,6 C 2,8 C 0,0 C 92 % 1034,5 hPa 0,0 l/m 0 min 0 min 0 W/m 12,9 km/h (3 Bft) 100,00 %
14.02.2023 07:28 3,6 C 2,8 C 0,0 C 92 % 1034,5 hPa 0,0 l/m 0 min 0 min 0 W/m 6,4 km/h (2 Bft) 100,00 %
14.02.2023 07:30 3,6 C 2,8 C 0,0 C 92 % 1034,5 hPa 0,0 l/m 0 min 0 min 0 W/m 12,9 km/h (3 Bft) 97,87 %
14.02.2023 07:32 3,6 C 2,8 C 0,0 C 92 % 1034,5 hPa 0,0 l/m 0 min 0 min 0 W/m 6,4 km/h (2 Bft) 97,87 %
14.02.2023 07:34 3,6 C 2,8 C 0,0 C 92 % 1034,6 hPa 0,0 l/m 0 min 0 min 0 W/m 6,4 km/h (2 Bft) 97,87 %
14.02.2023 07:36 3,6 C 2,8 C 0,0 C 92 % 1034,6 hPa 0,0 l/m 0 min 0 min 0 W/m 12,9 km/h (3 Bft) 93,62 %
14.02.2023 07:38 3,6 C 2,8 C 0,0 C 92 % 1034,6 hPa 0,0 l/m 0 min 0 min 0 W/m 16,1 km/h (3 Bft) 97,83 %
14.02.2023 07:40 3,6 C 2,8 C 0,0 C 92 % 1034,7 hPa 0,0 l/m 0 min 0 min 0 W/m 12,9 km/h (3 Bft) 97,87 %
14.02.2023 07:42 3,5 C 2,8 C 0,0 C 92 % 1034,7 hPa 0,0 l/m 0 min 0 min 0 W/m 12,9 km/h (3 Bft) 97,87 %
14.02.2023 07:44 3,6 C 2,8 C 0,0 C 92 % 1034,7 hPa 0,0 l/m 0 min 0 min 0 W/m 12,9 km/h (3 Bft) 97,87 %
14.02.2023 07:46 3,5 C 2,8 C 0,0 C 92 % 1034,7 hPa 0,0 l/m 0 min 0 min 0 W/m 12,9 km/h (3 Bft) 95,74 %
14.02.2023 07:48 3,5 C 2,8 C 0,0 C 92 % 1034,7 hPa 0,0 l/m 0 min 0 min 0 W/m 12,9 km/h (3 Bft) 93,62 %
14.02.2023 07:50 3,5 C 2,8 C -0,6 C 92 % 1034,7 hPa 0,0 l/m 0 min 0 min 4 W/m 12,9 km/h (3 Bft) 97,87 %
14.02.2023 07:52 3,5 C 2,8 C -0,6 C 92 % 1034,8 hPa 0,0 l/m 0 min 0 min 5 W/m 6,4 km/h (2 Bft) 95,65 %
14.02.2023 07:54 3,5 C 2,8 C -0,6 C 92 % 1034,8 hPa 0,0 l/m 0 min 0 min 5 W/m 12,9 km/h (3 Bft) 97,87 %
14.02.2023 07:56 3,5 C 2,8 C -0,6 C 92 % 1034,9 hPa 0,0 l/m 0 min 0 min 7 W/m 12,9 km/h (3 Bft) 97,87 %
14.02.2023 07:58 3,5 C 2,8 C -0,6 C 92 % 1034,8 hPa 0,0 l/m 0 min 0 min 7 W/m 12,9 km/h (3 Bft) 95,74 %
14.02.2023 08:00 3,4 C 2,8 C -0,6 C 92 % 1034,8 hPa 0,0 l/m 0 min 0 min 9 W/m 6,4 km/h (2 Bft) 95,74 %
14.02.2023 08:02 3,4 C 2,8 C -0,6 C 92 % 1034,7 hPa 0,0 l/m 0 min 0 min 9 W/m 9,7 km/h (2 Bft) 97,87 %
14.02.2023 08:04 3,4 C 2,8 C -0,6 C 92 % 1034,7 hPa 0,0 l/m 0 min 0 min 11 W/m 12,9 km/h (3 Bft) 93,48 %
14.02.2023 08:06 3,4 C 2,8 C -0,6 C 92 % 1034,7 hPa 0,0 l/m 0 min 0 min 11 W/m 9,7 km/h (2 Bft) 94,92 %
14.02.2023 08:08 3,4 C 2,8 C -0,6 C 92 % 1034,7 hPa 0,0 l/m 0 min 0 min 12 W/m 6,4 km/h (2 Bft) 100,00 %
14.02.2023 08:10 3,4 C 2,8 C -0,6 C 92 % 1034,8 hPa 0,0 l/m 0 min 0 min 12 W/m 12,9 km/h (3 Bft) 89,36 %
14.02.2023 08:12 3,4 C 2,8 C -0,6 C 92 % 1034,7 hPa 0,0 l/m 0 min 0 min 13 W/m 12,9 km/h (3 Bft) 95,74 %
14.02.2023 08:14 3,4 C 2,8 C -0,6 C 92 % 1034,7 hPa 0,0 l/m 0 min 0 min 14 W/m 9,7 km/h (2 Bft) 95,74 %
14.02.2023 08:16 3,4 C 2,8 C -0,6 C 92 % 1034,7 hPa 0,0 l/m 0 min 0 min 14 W/m 6,4 km/h (2 Bft) 93,62 %
14.02.2023 08:18 3,4 C 2,8 C -0,6 C 92 % 1034,7 hPa 0,0 l/m 0 min 0 min 16 W/m 6,4 km/h (2 Bft) 93,48 %
14.02.2023 08:20 3,4 C 2,8 C -0,6 C 92 % 1034,7 hPa 0,0 l/m 0 min 0 min 16 W/m 6,4 km/h (2 Bft) 93,62 %
14.02.2023 08:22 3,4 C 2,8 C -0,6 C 92 % 1034,7 hPa 0,0 l/m 0 min 0 min 18 W/m 12,9 km/h (3 Bft) 93,62 %
14.02.2023 08:24 3,4 C 2,8 C -0,6 C 92 % 1034,6 hPa 0,0 l/m 0 min 0 min 18 W/m 6,4 km/h (2 Bft) 95,74 %
14.02.2023 08:26 3,4 C 2,8 C -0,6 C 92 % 1034,6 hPa 0,0 l/m 0 min 0 min 19 W/m 6,4 km/h (2 Bft) 93,62 %
14.02.2023 08:28 3,4 C 2,8 C -0,6 C 92 % 1034,6 hPa 0,0 l/m 0 min 0 min 19 W/m 6,4 km/h (2 Bft) 96,00 %
14.02.2023 08:30 3,4 C 2,8 C 0,0 C 92 % 1034,6 hPa 0,0 l/m 0 min 0 min 21 W/m 12,9 km/h (3 Bft) 95,65 %
14.02.2023 08:32 3,4 C 2,8 C 0,0 C 92 % 1034,6 hPa 0,0 l/m 0 min 0 min 21 W/m 12,9 km/h (3 Bft) 95,74 %
14.02.2023 08:34 3,4 C 2,8 C 0,0 C 92 % 1034,7 hPa 0,0 l/m 0 min 0 min 22 W/m 6,4 km/h (2 Bft) 93,62 %
14.02.2023 08:36 3,4 C 2,8 C 0,0 C 92 % 1034,6 hPa 0,0 l/m 0 min 0 min 23 W/m 3,2 km/h (1 Bft) 95,74 %
14.02.2023 08:38 3,4 C 2,8 C 0,0 C 92 % 1034,6 hPa 0,0 l/m 0 min 0 min 24 W/m 12,9 km/h (3 Bft) 95,74 %
14.02.2023 08:40 3,5 C 3,3 C 0,0 C 92 % 1034,7 hPa 0,0 l/m 0 min 0 min 25 W/m 9,7 km/h (2 Bft) 97,87 %
14.02.2023 08:42 3,5 C 3,3 C 0,0 C 92 % 1034,7 hPa 0,0 l/m 0 min 0 min 25 W/m 6,4 km/h (2 Bft) 95,74 %
14.02.2023 08:44 3,5 C 3,3 C 0,0 C 92 % 1034,7 hPa 0,0 l/m 0 min 0 min 26 W/m 16,1 km/h (3 Bft) 93,48 %
14.02.2023 08:46 3,6 C 3,3 C 0,0 C 92 % 1034,7 hPa 0,0 l/m 0 min 0 min 26 W/m 12,9 km/h (3 Bft) 97,87 %
14.02.2023 08:48 3,6 C 3,3 C 0,0 C 92 % 1034,7 hPa 0,0 l/m 0 min 0 min 34 W/m 6,4 km/h (2 Bft) 97,87 %
14.02.2023 08:50 3,6 C 3,3 C 0,0 C 92 % 1034,8 hPa 0,0 l/m 2 min 0 min 77 W/m 12,9 km/h (3 Bft) 95,74 %
14.02.2023 08:52 3,6 C 3,3 C 0,0 C 92 % 1034,8 hPa 0,0 l/m 0 min 0 min 64 W/m 9,7 km/h (2 Bft) 97,87 %
14.02.2023 08:54 3,6 C 3,3 C 0,0 C 92 % 1034,8 hPa 0,0 l/m 0 min 0 min 64 W/m 9,7 km/h (2 Bft) 95,74 %
14.02.2023 08:56 3,7 C 3,3 C 0,0 C 92 % 1034,8 hPa 0,0 l/m 0 min 0 min 56 W/m 12,9 km/h (3 Bft) 95,65 %
14.02.2023 08:58 3,7 C 3,3 C 0,0 C 93 % 1034,8 hPa 0,0 l/m 0 min 0 min 75 W/m 16,1 km/h (3 Bft) 100,00 %
14.02.2023 09:00 3,7 C 3,3 C 0,0 C 93 % 1034,8 hPa 0,0 l/m 0 min 0 min 49 W/m 6,4 km/h (2 Bft) 97,87 %
14.02.2023 09:02 3,8 C 3,9 C 0,0 C 93 % 1034,8 hPa 0,0 l/m 0 min 0 min 60 W/m 9,7 km/h (2 Bft) 97,87 %
14.02.2023 09:04 3,8 C 4,4 C 0,6 C 93 % 1034,8 hPa 0,0 l/m 2 min 0 min 94 W/m 12,9 km/h (3 Bft) 97,87 %
14.02.2023 09:06 3,9 C 5,0 C 0,6 C 93 % 1034,8 hPa 0,0 l/m 2 min 0 min 105 W/m 16,1 km/h (3 Bft) 100,00 %
14.02.2023 09:08 3,9 C 5,6 C 0,6 C 93 % 1034,8 hPa 0,0 l/m 2 min 0 min 103 W/m 6,4 km/h (2 Bft) 100,00 %
14.02.2023 09:10 4,0 C 6,1 C 0,6 C 93 % 1034,8 hPa 0,0 l/m 2 min 0 min 115 W/m 6,4 km/h (2 Bft) 100,00 %
14.02.2023 09:12 4,1 C 6,1 C 0,6 C 93 % 1034,8 hPa 0,0 l/m 0 min 0 min 82 W/m 9,7 km/h (2 Bft) 100,00 %
14.02.2023 09:14 4,1 C 5,6 C 0,6 C 93 % 1034,8 hPa 0,0 l/m 2 min 0 min 107 W/m 12,9 km/h (3 Bft) 97,87 %
14.02.2023 09:16 4,2 C 5,6 C 0,6 C 93 % 1034,8 hPa 0,0 l/m 2 min 0 min 98 W/m 6,4 km/h (2 Bft) 100,00 %
14.02.2023 09:18 4,3 C 5,6 C 0,6 C 93 % 1034,8 hPa 0,0 l/m 0 min 0 min 68 W/m 12,9 km/h (3 Bft) 100,00 %
14.02.2023 09:20 4,3 C 5,6 C 0,6 C 93 % 1034,8 hPa 0,0 l/m 0 min 0 min 80 W/m 12,9 km/h (3 Bft) 97,87 %
14.02.2023 09:22 4,4 C 5,6 C 0,6 C 93 % 1034,8 hPa 0,0 l/m 0 min 0 min 56 W/m 6,4 km/h (2 Bft) 97,83 %
14.02.2023 09:24 4,4 C 6,1 C 0,6 C 93 % 1034,8 hPa 0,0 l/m 0 min 0 min 75 W/m 12,9 km/h (3 Bft) 97,87 %
14.02.2023 09:26 4,5 C 6,1 C 0,6 C 93 % 1034,8 hPa 0,0 l/m 2 min 0 min 115 W/m 12,9 km/h (3 Bft) 100,00 %
14.02.2023 09:28 4,6 C 6,1 C 1,1 C 93 % 1034,9 hPa 0,0 l/m 2 min 0 min 124 W/m 6,4 km/h (2 Bft) 97,87 %
14.02.2023 09:30 4,6 C 6,1 C 1,1 C 93 % 1034,8 hPa 0,0 l/m 0 min 0 min 94 W/m 12,9 km/h (3 Bft) 100,00 %
14.02.2023 09:32 4,7 C 6,1 C 1,1 C 92 % 1034,9 hPa 0,0 l/m 0 min 0 min 53 W/m 6,4 km/h (2 Bft) 100,00 %
14.02.2023 09:34 4,7 C 6,1 C 1,1 C 92 % 1034,9 hPa 0,0 l/m 0 min 0 min 49 W/m 6,4 km/h (2 Bft) 100,00 %
14.02.2023 09:36 4,8 C 6,7 C 1,1 C 92 % 1034,9 hPa 0,0 l/m 0 min 0 min 113 W/m 12,9 km/h (3 Bft) 97,83 %
14.02.2023 09:38 4,8 C 6,7 C 1,1 C 92 % 1034,9 hPa 0,0 l/m 2 min 0 min 165 W/m 12,9 km/h (3 Bft) 100,00 %
14.02.2023 09:40 4,9 C 6,7 C 1,1 C 92 % 1034,9 hPa 0,0 l/m 0 min 0 min 86 W/m 9,7 km/h (2 Bft) 100,00 %
14.02.2023 09:42 4,9 C 6,1 C 1,1 C 92 % 1034,9 hPa 0,0 l/m 0 min 0 min 48 W/m 9,7 km/h (2 Bft) 97,87 %
14.02.2023 09:44 5,0 C 6,1 C 1,1 C 92 % 1034,9 hPa 0,0 l/m 0 min 0 min 77 W/m 6,4 km/h (2 Bft) 100,00 %
14.02.2023 09:46 5,1 C 6,1 C 1,1 C 92 % 1034,9 hPa 0,0 l/m 0 min 0 min 103 W/m 12,9 km/h (3 Bft) 100,00 %
14.02.2023 09:48 5,1 C 7,2 C 1,1 C 92 % 1034,8 hPa 0,0 l/m 2 min 0 min 198 W/m 12,9 km/h (3 Bft) 97,83 %
14.02.2023 09:50 5,2 C 7,2 C 1,1 C 91 % 1034,8 hPa 0,0 l/m 2 min 0 min 240 W/m 12,9 km/h (3 Bft) 97,87 %
14.02.2023 09:52 5,2 C 7,8 C 1,1 C 91 % 1034,9 hPa 0,0 l/m 2 min 0 min 211 W/m 12,9 km/h (3 Bft) 97,87 %
14.02.2023 09:54 5,3 C 8,9 C 1,7 C 91 % 1034,9 hPa 0,0 l/m 2 min 0 min 235 W/m 12,9 km/h (3 Bft) 100,00 %
14.02.2023 09:56 5,3 C 10,0 C 1,7 C 91 % 1034,9 hPa 0,0 l/m 2 min 0 min 236 W/m 6,4 km/h (2 Bft) 97,87 %
14.02.2023 09:58 5,4 C 10,6 C 1,7 C 91 % 1034,8 hPa 0,0 l/m 0 min 0 min 134 W/m 6,4 km/h (2 Bft) 100,00 %
14.02.2023 10:00 5,5 C 10,6 C 1,7 C 91 % 1034,9 hPa 0,0 l/m 0 min 0 min 52 W/m 9,7 km/h (2 Bft) 100,00 %
14.02.2023 10:02 5,6 C 10,0 C 1,7 C 91 % 1034,9 hPa 0,0 l/m 0 min 0 min 54 W/m 16,1 km/h (3 Bft) 100,00 %
14.02.2023 10:04 5,7 C 10,0 C 1,7 C 90 % 1034,8 hPa 0,0 l/m 0 min 0 min 103 W/m 12,9 km/h (3 Bft) 100,00 %
14.02.2023 10:06 5,8 C 10,0 C 1,7 C 90 % 1034,8 hPa 0,0 l/m 2 min 0 min 182 W/m 16,1 km/h (3 Bft) 97,87 %
14.02.2023 10:08 5,9 C 10,0 C 1,7 C 90 % 1034,8 hPa 0,0 l/m 2 min 0 min 209 W/m 12,9 km/h (3 Bft) 100,00 %
14.02.2023 10:10 6,0 C 10,0 C 2,2 C 89 % 1034,8 hPa 0,0 l/m 2 min 0 min 197 W/m 12,9 km/h (3 Bft) 100,00 %
14.02.2023 10:12 6,1 C 10,0 C 2,2 C 89 % 1034,7 hPa 0,0 l/m 2 min 0 min 279 W/m 16,1 km/h (3 Bft) 100,00 %
14.02.2023 10:14 6,2 C 11,1 C 2,2 C 89 % 1034,7 hPa 0,0 l/m 2 min 0 min 294 W/m 16,1 km/h (3 Bft) 100,00 %
14.02.2023 10:16 6,3 C 11,7 C 2,2 C 89 % 1034,7 hPa 0,0 l/m 2 min 0 min 299 W/m 9,7 km/h (2 Bft) 97,87 %
14.02.2023 10:18 6,4 C 11,1 C 2,2 C 88 % 1034,7 hPa 0,0 l/m 2 min 0 min 280 W/m 19,3 km/h (3 Bft) 97,87 %
14.02.2023 10:20 6,5 C 11,7 C 2,2 C 88 % 1034,6 hPa 0,0 l/m 2 min 0 min 240 W/m 16,1 km/h (3 Bft) 95,74 %
14.02.2023 10:22 6,6 C 12,2 C 2,2 C 87 % 1034,6 hPa 0,0 l/m 2 min 0 min 230 W/m 16,1 km/h (3 Bft) 93,62 %
14.02.2023 10:24 6,7 C 12,8 C 2,2 C 87 % 1034,6 hPa 0,0 l/m 2 min 0 min 301 W/m 19,3 km/h (3 Bft) 93,62 %
14.02.2023 10:26 6,8 C 12,8 C 2,2 C 87 % 1034,6 hPa 0,0 l/m 2 min 0 min 322 W/m 19,3 km/h (3 Bft) 93,62 %
14.02.2023 10:28 6,8 C 12,8 C 2,2 C 86 % 1034,6 hPa 0,0 l/m 2 min 0 min 293 W/m 16,1 km/h (3 Bft) 93,48 %
14.02.2023 10:30 6,9 C 12,8 C 2,2 C 86 % 1034,5 hPa 0,0 l/m 2 min 0 min 275 W/m 16,1 km/h (3 Bft) 95,74 %
14.02.2023 10:32 7,0 C 13,3 C 2,8 C 85 % 1034,6 hPa 0,0 l/m 2 min 0 min 327 W/m 19,3 km/h (3 Bft) 95,74 %
14.02.2023 10:34 7,1 C 13,9 C 2,8 C 85 % 1034,6 hPa 0,0 l/m 2 min 0 min 314 W/m 19,3 km/h (3 Bft) 95,74 %
14.02.2023 10:36 7,2 C 13,9 C 2,8 C 85 % 1034,6 hPa 0,0 l/m 2 min 0 min 322 W/m 25,7 km/h (4 Bft) 95,74 %
14.02.2023 10:38 7,2 C 14,4 C 2,8 C 84 % 1034,6 hPa 0,0 l/m 2 min 0 min 295 W/m 16,1 km/h (3 Bft) 93,62 %
14.02.2023 10:40 7,3 C 14,4 C 2,8 C 84 % 1034,5 hPa 0,0 l/m 2 min 0 min 346 W/m 16,1 km/h (3 Bft) 95,65 %
14.02.2023 10:42 7,4 C 14,4 C 2,8 C 84 % 1034,5 hPa 0,0 l/m 2 min 0 min 336 W/m 19,3 km/h (3 Bft) 95,74 %
14.02.2023 10:44 7,4 C 15,0 C 2,8 C 83 % 1034,5 hPa 0,0 l/m 2 min 0 min 330 W/m 16,1 km/h (3 Bft) 93,62 %
14.02.2023 10:46 7,5 C 15,6 C 2,8 C 83 % 1034,5 hPa 0,0 l/m 2 min 0 min 284 W/m 16,1 km/h (3 Bft) 95,74 %
14.02.2023 10:48 7,6 C 16,1 C 2,8 C 83 % 1034,5 hPa 0,0 l/m 2 min 0 min 336 W/m 12,9 km/h (3 Bft) 95,12 %
14.02.2023 10:50 7,7 C 16,1 C 3,3 C 83 % 1034,5 hPa 0,0 l/m 2 min 0 min 366 W/m 16,1 km/h (3 Bft) 91,49 %
14.02.2023 10:52 7,8 C 16,7 C 3,3 C 83 % 1034,5 hPa 0,0 l/m 2 min 0 min 369 W/m 12,9 km/h (3 Bft) 95,74 %
14.02.2023 10:54 7,9 C 17,2 C 3,3 C 83 % 1034,5 hPa 0,0 l/m 2 min 0 min 372 W/m 9,7 km/h (2 Bft) 95,74 %
14.02.2023 10:56 8,1 C 16,7 C 3,3 C 82 % 1034,5 hPa 0,0 l/m 2 min 0 min 376 W/m 19,3 km/h (3 Bft) 97,87 %
14.02.2023 10:58 8,1 C 17,2 C 3,3 C 82 % 1034,5 hPa 0,0 l/m 2 min 0 min 380 W/m 6,4 km/h (2 Bft) 95,65 %
14.02.2023 11:00 8,2 C 17,2 C 3,3 C 82 % 1034,3 hPa 0,0 l/m 2 min 0 min 382 W/m 9,7 km/h (2 Bft) 97,87 %
14.02.2023 11:02 8,4 C 17,2 C 3,9 C 81 % 1034,3 hPa 0,0 l/m 2 min 0 min 386 W/m 12,9 km/h (3 Bft) 100,00 %
14.02.2023 11:04 8,4 C 16,7 C 3,9 C 81 % 1034,4 hPa 0,0 l/m 2 min 0 min 388 W/m 16,1 km/h (3 Bft) 100,00 %
14.02.2023 11:06 8,6 C 16,7 C 3,9 C 81 % 1034,3 hPa 0,0 l/m 2 min 0 min 391 W/m 12,9 km/h (3 Bft) 94,92 %
14.02.2023 11:08 8,6 C 16,7 C 3,9 C 80 % 1034,5 hPa 0,0 l/m 2 min 0 min 395 W/m 16,1 km/h (3 Bft) 100,00 %
14.02.2023 11:10 8,7 C 17,2 C 3,9 C 80 % 1034,4 hPa 0,0 l/m 2 min 0 min 397 W/m 16,1 km/h (3 Bft) 100,00 %
14.02.2023 11:12 8,8 C 17,8 C 3,9 C 80 % 1034,5 hPa 0,0 l/m 2 min 0 min 401 W/m 9,7 km/h (2 Bft) 100,00 %
14.02.2023 11:14 8,8 C 17,8 C 4,4 C 80 % 1034,4 hPa 0,0 l/m 2 min 0 min 404 W/m 12,9 km/h (3 Bft) 95,74 %
14.02.2023 11:16 8,9 C 17,2 C 4,4 C 79 % 1034,4 hPa 0,0 l/m 2 min 0 min 408 W/m 16,1 km/h (3 Bft) 95,74 %
14.02.2023 11:18 9,0 C 17,2 C 4,4 C 79 % 1034,4 hPa 0,0 l/m 2 min 0 min 411 W/m 16,1 km/h (3 Bft) 100,00 %
14.02.2023 11:20 9,1 C 17,8 C 4,4 C 79 % 1034,4 hPa 0,0 l/m 2 min 0 min 413 W/m 12,9 km/h (3 Bft) 97,87 %
14.02.2023 11:22 9,2 C 18,3 C 4,4 C 79 % 1034,4 hPa 0,0 l/m 2 min 0 min 415 W/m 12,9 km/h (3 Bft) 100,00 %
14.02.2023 11:24 9,2 C 18,3 C 5,0 C 78 % 1034,4 hPa 0,0 l/m 2 min 0 min 417 W/m 12,9 km/h (3 Bft) 97,83 %
14.02.2023 11:26 9,3 C 18,3 C 5,0 C 78 % 1034,4 hPa 0,0 l/m 2 min 0 min 420 W/m 12,9 km/h (3 Bft) 100,00 %
14.02.2023 11:28 9,3 C 17,2 C 5,0 C 78 % 1034,4 hPa 0,0 l/m 2 min 0 min 423 W/m 16,1 km/h (3 Bft) 100,00 %
14.02.2023 11:30 9,4 C 17,2 C 5,6 C 77 % 1034,4 hPa 0,0 l/m 2 min 0 min 425 W/m 16,1 km/h (3 Bft) 100,00 %
14.02.2023 11:32 9,4 C 17,8 C 6,1 C 77 % 1034,4 hPa 0,0 l/m 2 min 0 min 428 W/m 16,1 km/h (3 Bft) 97,87 %
14.02.2023 11:34 9,5 C 16,7 C 6,7 C 77 % 1034,3 hPa 0,0 l/m 2 min 0 min 428 W/m 16,1 km/h (3 Bft) 100,00 %
14.02.2023 11:36 9,5 C 15,6 C 7,2 C 77 % 1034,3 hPa 0,0 l/m 2 min 0 min 431 W/m 16,1 km/h (3 Bft) 100,00 %
14.02.2023 11:38 9,6 C 15,6 C 7,8 C 77 % 1034,3 hPa 0,0 l/m 2 min 0 min 434 W/m 12,9 km/h (3 Bft) 100,00 %
14.02.2023 11:40 9,6 C 15,0 C 7,8 C 77 % 1034,3 hPa 0,0 l/m 2 min 0 min 436 W/m 19,3 km/h (3 Bft) 100,00 %
14.02.2023 11:42 9,6 C 13,9 C 7,8 C 77 % 1034,3 hPa 0,0 l/m 2 min 0 min 404 W/m 16,1 km/h (3 Bft) 100,00 %
14.02.2023 11:44 9,6 C 13,9 C 7,8 C 77 % 1034,3 hPa 0,0 l/m 2 min 0 min 372 W/m 12,9 km/h (3 Bft) 100,00 %
14.02.2023 11:46 9,6 C 13,9 C 7,8 C 77 % 1034,2 hPa 0,0 l/m 2 min 0 min 377 W/m 12,9 km/h (3 Bft) 97,87 %
14.02.2023 11:48 9,7 C 13,9 C 8,3 C 76 % 1034,2 hPa 0,0 l/m 2 min 0 min 285 W/m 12,9 km/h (3 Bft) 95,74 %
14.02.2023 11:50 9,7 C 13,9 C 7,8 C 76 % 1034,1 hPa 0,0 l/m 2 min 0 min 250 W/m 16,1 km/h (3 Bft) 100,00 %
14.02.2023 11:52 9,7 C 13,3 C 7,8 C 76 % 1034,2 hPa 0,0 l/m 2 min 0 min 222 W/m 12,9 km/h (3 Bft) 97,87 %
14.02.2023 11:54 9,7 C 12,2 C 7,8 C 76 % 1034,1 hPa 0,0 l/m 0 min 0 min 197 W/m 12,9 km/h (3 Bft) 100,00 %
14.02.2023 11:56 9,7 C 12,2 C 8,3 C 77 % 1034,0 hPa 0,0 l/m 0 min 0 min 171 W/m 9,7 km/h (2 Bft) 100,00 %
14.02.2023 11:58 9,7 C 12,8 C 7,8 C 77 % 1034,1 hPa 0,0 l/m 2 min 0 min 223 W/m 16,1 km/h (3 Bft) 100,00 %
14.02.2023 12:00 9,7 C 12,8 C 7,2 C 76 % 1034,0 hPa 0,0 l/m 2 min 0 min 223 W/m 12,9 km/h (3 Bft) 100,00 %
14.02.2023 12:02 9,7 C 12,8 C 7,2 C 77 % 1034,1 hPa 0,0 l/m 0 min 0 min 128 W/m 6,4 km/h (2 Bft) 100,00 %
14.02.2023 12:04 9,7 C 13,3 C 6,7 C 77 % 1034,0 hPa 0,0 l/m 0 min 0 min 104 W/m 12,9 km/h (3 Bft) 100,00 %
14.02.2023 12:07 9,7 C 12,8 C 6,7 C 76 % 1034,0 hPa 0,0 l/m 0 min 0 min 93 W/m 12,9 km/h (3 Bft) 97,26 %
14.02.2023 12:08 9,7 C 12,2 C 6,7 C 76 % 1034,0 hPa 0,0 l/m 0 min 0 min 63 W/m 9,7 km/h (2 Bft) 100,00 %
14.02.2023 12:12 9,8 C 11,1 C 6,1 C 76 % 1033,9 hPa 0,0 l/m 0 min 0 min 61 W/m 9,7 km/h (2 Bft) 96,00 %
14.02.2023 12:14 9,8 C 11,1 C 6,1 C 77 % 1034,0 hPa 0,0 l/m 0 min 0 min 81 W/m 9,7 km/h (2 Bft) 95,65 %
14.02.2023 12:16 9,8 C 10,6 C 6,1 C 76 % 1034,0 hPa 0,0 l/m 0 min 0 min 76 W/m 9,7 km/h (2 Bft) 97,87 %
14.02.2023 12:18 9,8 C 10,6 C 6,7 C 77 % 1033,9 hPa 0,0 l/m 0 min 0 min 118 W/m 16,1 km/h (3 Bft) 97,87 %
14.02.2023 12:20 9,8 C 10,6 C 7,2 C 76 % 1034,0 hPa 0,0 l/m 0 min 0 min 166 W/m 12,9 km/h (3 Bft) 95,74 %
14.02.2023 12:22 9,8 C 12,2 C 8,3 C 76 % 1034,0 hPa 0,0 l/m 0 min 0 min 139 W/m 12,9 km/h (3 Bft) 97,87 %
14.02.2023 12:24 9,8 C 13,3 C 8,9 C 76 % 1034,0 hPa 0,0 l/m 0 min 0 min 77 W/m 19,3 km/h (3 Bft) 97,87 %
14.02.2023 12:26 9,8 C 13,3 C 8,9 C 76 % 1034,0 hPa 0,0 l/m 0 min 0 min 109 W/m 16,1 km/h (3 Bft) 97,87 %
14.02.2023 12:28 9,8 C 13,3 C 8,3 C 76 % 1034,0 hPa 0,0 l/m 0 min 0 min 107 W/m 16,1 km/h (3 Bft) 97,83 %
14.02.2023 12:30 9,9 C 12,8 C 8,9 C 76 % 1034,0 hPa 0,0 l/m 0 min 0 min 183 W/m 6,4 km/h (2 Bft) 95,74 %
14.02.2023 12:32 9,9 C 12,8 C 8,9 C 76 % 1033,9 hPa 0,0 l/m 0 min 0 min 169 W/m 9,7 km/h (2 Bft) 95,74 %
14.02.2023 12:34 9,9 C 13,3 C 8,9 C 76 % 1034,0 hPa 0,0 l/m 0 min 0 min 124 W/m 9,7 km/h (2 Bft) 97,87 %
14.02.2023 12:36 10,0 C 13,3 C 8,3 C 76 % 1034,0 hPa 0,0 l/m 0 min 0 min 141 W/m 12,9 km/h (3 Bft) 95,74 %
14.02.2023 12:38 10,1 C 12,8 C 7,8 C 76 % 1033,9 hPa 0,0 l/m 0 min 0 min 131 W/m 12,9 km/h (3 Bft) 97,87 %
14.02.2023 12:40 10,1 C 12,8 C 7,8 C 76 % 1033,9 hPa 0,0 l/m 0 min 0 min 199 W/m 12,9 km/h (3 Bft) 97,83 %
14.02.2023 12:42 10,1 C 12,2 C 7,2 C 76 % 1033,8 hPa 0,0 l/m 2 min 0 min 247 W/m 16,1 km/h (3 Bft) 100,00 %
14.02.2023 12:44 10,1 C 12,2 C 6,7 C 76 % 1033,8 hPa 0,0 l/m 2 min 0 min 339 W/m 12,9 km/h (3 Bft) 97,87 %
14.02.2023 12:46 10,2 C 12,2 C 6,7 C 76 % 1033,8 hPa 0,0 l/m 2 min 0 min 353 W/m 12,9 km/h (3 Bft) 100,00 %
14.02.2023 12:48 10,2 C 12,8 C 6,7 C 76 % 1033,7 hPa 0,0 l/m 0 min 0 min 192 W/m 6,4 km/h (2 Bft) 100,00 %
14.02.2023 12:50 10,2 C 13,3 C 6,1 C 75 % 1033,7 hPa 0,0 l/m 2 min 0 min 225 W/m 12,9 km/h (3 Bft) 97,87 %
14.02.2023 12:52 10,3 C 13,3 C 6,1 C 76 % 1033,7 hPa 0,0 l/m 2 min 0 min 240 W/m 9,7 km/h (2 Bft) 97,87 %
14.02.2023 12:54 10,3 C 13,3 C 6,1 C 75 % 1033,7 hPa 0,0 l/m 2 min 0 min 337 W/m 12,9 km/h (3 Bft) 97,83 %
14.02.2023 12:56 10,3 C 13,9 C 6,1 C 75 % 1033,6 hPa 0,0 l/m 2 min 0 min 410 W/m 12,9 km/h (3 Bft) 97,87 %
14.02.2023 12:58 10,4 C 15,0 C 6,1 C 75 % 1033,6 hPa 0,0 l/m 2 min 0 min 461 W/m 16,1 km/h (3 Bft) 100,00 %
14.02.2023 13:00 10,4 C 16,1 C 6,7 C 75 % 1033,6 hPa 0,0 l/m 2 min 0 min 465 W/m 12,9 km/h (3 Bft) 100,00 %
14.02.2023 13:02 10,5 C 16,7 C 6,7 C 75 % 1033,6 hPa 0,0 l/m 2 min 0 min 464 W/m 9,7 km/h (2 Bft) 95,74 %
14.02.2023 13:04 10,6 C 17,2 C 6,7 C 75 % 1033,6 hPa 0,0 l/m 2 min 0 min 467 W/m 12,9 km/h (3 Bft) 100,00 %
14.02.2023 13:06 10,7 C 18,9 C 6,7 C 75 % 1033,5 hPa 0,0 l/m 2 min 0 min 468 W/m 6,4 km/h (2 Bft) 98,28 %
14.02.2023 13:08 10,8 C 20,0 C 6,7 C 74 % 1033,5 hPa 0,0 l/m 2 min 0 min 467 W/m 6,4 km/h (2 Bft) 91,43 %
14.02.2023 13:10 10,9 C 20,0 C 6,7 C 74 % 1033,5 hPa 0,0 l/m 2 min 0 min 465 W/m 9,7 km/h (2 Bft) 97,87 %
14.02.2023 13:12 11,1 C 19,4 C 6,7 C 74 % 1033,5 hPa 0,0 l/m 2 min 0 min 466 W/m 12,9 km/h (3 Bft) 97,87 %
14.02.2023 13:14 11,1 C 20,0 C 6,7 C 74 % 1033,5 hPa 0,0 l/m 2 min 0 min 465 W/m 9,7 km/h (2 Bft) 95,74 %
14.02.2023 13:16 11,3 C 21,1 C 6,7 C 73 % 1033,5 hPa 0,0 l/m 2 min 0 min 465 W/m 6,4 km/h (2 Bft) 97,87 %
14.02.2023 13:18 11,3 C 21,1 C 6,7 C 73 % 1033,4 hPa 0,0 l/m 2 min 0 min 463 W/m 9,7 km/h (2 Bft) 97,87 %
14.02.2023 13:20 11,4 C 20,6 C 6,7 C 73 % 1033,4 hPa 0,0 l/m 2 min 0 min 461 W/m 16,1 km/h (3 Bft) 95,65 %
14.02.2023 13:22 11,5 C 20,0 C 6,7 C 72 % 1033,3 hPa 0,0 l/m 2 min 0 min 460 W/m 9,7 km/h (2 Bft) 97,87 %
14.02.2023 13:24 11,6 C 20,6 C 6,7 C 72 % 1033,2 hPa 0,0 l/m 2 min 0 min 460 W/m 6,4 km/h (2 Bft) 93,62 %
14.02.2023 13:26 11,7 C 19,4 C 6,7 C 72 % 1033,2 hPa 0,0 l/m 2 min 0 min 460 W/m 9,7 km/h (2 Bft) 93,62 %
14.02.2023 13:28 11,8 C 20,0 C 6,7 C 72 % 1033,1 hPa 0,0 l/m 2 min 0 min 461 W/m 3,2 km/h (1 Bft) 97,87 %
14.02.2023 13:30 11,9 C 20,0 C 6,7 C 72 % 1033,1 hPa 0,0 l/m 2 min 0 min 458 W/m 3,2 km/h (1 Bft) 97,87 %
14.02.2023 13:32 12,0 C 20,6 C 6,7 C 71 % 1033,1 hPa 0,0 l/m 2 min 0 min 455 W/m 9,7 km/h (2 Bft) 95,65 %
14.02.2023 13:34 12,1 C 20,6 C 6,7 C 71 % 1033,0 hPa 0,0 l/m 2 min 0 min 455 W/m 6,4 km/h (2 Bft) 95,74 %
14.02.2023 13:36 12,1 C 21,1 C 6,7 C 71 % 1033,0 hPa 0,0 l/m 2 min 0 min 453 W/m 6,4 km/h (2 Bft) 97,87 %
14.02.2023 13:38 12,2 C 20,6 C 6,7 C 71 % 1032,9 hPa 0,0 l/m 2 min 0 min 451 W/m 12,9 km/h (3 Bft) 95,74 %
14.02.2023 13:40 12,2 C 19,4 C 6,7 C 71 % 1032,9 hPa 0,0 l/m 2 min 0 min 451 W/m 9,7 km/h (2 Bft) 97,87 %
14.02.2023 13:42 12,3 C 17,8 C 6,7 C 70 % 1032,8 hPa 0,0 l/m 2 min 0 min 450 W/m 6,4 km/h (2 Bft) 91,49 %
14.02.2023 13:44 12,3 C 17,8 C 6,7 C 70 % 1032,8 hPa 0,0 l/m 2 min 0 min 448 W/m 9,7 km/h (2 Bft) 95,65 %
14.02.2023 13:46 12,3 C 17,8 C 6,7 C 70 % 1032,8 hPa 0,0 l/m 2 min 0 min 447 W/m 9,7 km/h (2 Bft) 97,87 %
14.02.2023 13:48 12,3 C 17,8 C 6,7 C 70 % 1032,8 hPa 0,0 l/m 2 min 0 min 445 W/m 12,9 km/h (3 Bft) 97,87 %
14.02.2023 13:50 12,3 C 17,8 C 6,7 C 70 % 1032,8 hPa 0,0 l/m 2 min 0 min 442 W/m 12,9 km/h (3 Bft) 93,62 %
14.02.2023 13:52 12,4 C 17,8 C 6,7 C 70 % 1032,8 hPa 0,0 l/m 2 min 0 min 440 W/m 6,4 km/h (2 Bft) 95,74 %
14.02.2023 13:54 12,4 C 17,2 C 6,7 C 70 % 1032,7 hPa 0,0 l/m 2 min 0 min 439 W/m 6,4 km/h (2 Bft) 93,62 %
14.02.2023 13:56 12,5 C 16,7 C 6,7 C 70 % 1032,7 hPa 0,0 l/m 2 min 0 min 439 W/m 6,4 km/h (2 Bft) 95,74 %
14.02.2023 13:58 12,6 C 16,7 C 6,7 C 70 % 1032,7 hPa 0,0 l/m 2 min 0 min 436 W/m 6,4 km/h (2 Bft) 95,65 %
14.02.2023 14:00 12,6 C 16,1 C 6,7 C 70 % 1032,7 hPa 0,0 l/m 2 min 0 min 434 W/m 6,4 km/h (2 Bft) 93,62 %
14.02.2023 14:02 12,6 C 16,1 C 6,7 C 70 % 1032,6 hPa 0,0 l/m 2 min 0 min 432 W/m 6,4 km/h (2 Bft) 91,49 %
14.02.2023 14:04 12,6 C 16,7 C 6,7 C 70 % 1032,6 hPa 0,0 l/m 2 min 0 min 430 W/m 6,4 km/h (2 Bft) 97,87 %
14.02.2023 14:06 12,6 C 16,7 C 6,7 C 70 % 1032,6 hPa 0,0 l/m 2 min 0 min 427 W/m 0,0 km/h (0 Bft) 93,22 %
14.02.2023 14:08 12,6 C 16,1 C 6,7 C 70 % 1032,5 hPa 0,0 l/m 2 min 0 min 424 W/m 0,0 km/h (0 Bft) 97,14 %
14.02.2023 14:10 12,7 C 15,6 C 6,7 C 69 % 1032,5 hPa 0,0 l/m 2 min 0 min 423 W/m 9,7 km/h (2 Bft) 95,74 %
14.02.2023 14:12 12,7 C 15,0 C 6,7 C 69 % 1032,6 hPa 0,0 l/m 2 min 0 min 420 W/m 12,9 km/h (3 Bft) 86,96 %
14.02.2023 14:14 12,7 C 15,6 C 6,7 C 69 % 1032,6 hPa 0,0 l/m 2 min 0 min 419 W/m 6,4 km/h (2 Bft) 59,57 %
14.02.2023 14:16 12,6 C 15,6 C 6,7 C 69 % 1032,5 hPa 0,0 l/m 2 min 0 min 416 W/m 6,4 km/h (2 Bft) 76,60 %
14.02.2023 14:18 12,6 C 15,0 C 6,7 C 69 % 1032,5 hPa 0,0 l/m 2 min 0 min 414 W/m 9,7 km/h (2 Bft) 80,85 %
14.02.2023 14:20 12,6 C 15,0 C 6,7 C 69 % 1032,5 hPa 0,0 l/m 2 min 0 min 413 W/m 6,4 km/h (2 Bft) 55,32 %
14.02.2023 14:22 12,7 C 15,6 C 6,7 C 69 % 1032,4 hPa 0,0 l/m 2 min 0 min 412 W/m 12,9 km/h (3 Bft) 38,30 %
14.02.2023 14:24 12,7 C 16,1 C 6,7 C 69 % 1032,5 hPa 0,0 l/m 2 min 0 min 408 W/m 6,4 km/h (2 Bft) 87,23 %
14.02.2023 14:26 12,7 C 16,1 C 6,7 C 69 % 1032,4 hPa 0,0 l/m 2 min 0 min 404 W/m 6,4 km/h (2 Bft) 80,43 %
14.02.2023 14:28 12,7 C 15,6 C 6,7 C 69 % 1032,3 hPa 0,0 l/m 2 min 0 min 401 W/m 12,9 km/h (3 Bft) 82,98 %
14.02.2023 14:30 12,7 C 15,0 C 6,7 C 69 % 1032,3 hPa 0,0 l/m 2 min 0 min 400 W/m 9,7 km/h (2 Bft) 82,98 %
14.02.2023 14:32 12,8 C 15,0 C 7,2 C 69 % 1032,3 hPa 0,0 l/m 2 min 0 min 396 W/m 12,9 km/h (3 Bft) 76,60 %
14.02.2023 14:34 12,8 C 15,0 C 6,7 C 69 % 1032,2 hPa 0,0 l/m 2 min 0 min 394 W/m 6,4 km/h (2 Bft) 82,98 %
14.02.2023 14:36 12,8 C 15,6 C 6,7 C 69 % 1032,3 hPa 0,0 l/m 2 min 0 min 391 W/m 3,2 km/h (1 Bft) 91,49 %
14.02.2023 14:38 12,8 C 15,0 C 6,7 C 69 % 1032,3 hPa 0,0 l/m 2 min 0 min 390 W/m 12,9 km/h (3 Bft) 80,43 %
14.02.2023 14:40 12,8 C 15,0 C 6,7 C 69 % 1032,2 hPa 0,0 l/m 2 min 0 min 388 W/m 12,9 km/h (3 Bft) 80,00 %
14.02.2023 14:42 12,8 C 15,6 C 7,2 C 69 % 1032,2 hPa 0,0 l/m 2 min 0 min 382 W/m 6,4 km/h (2 Bft) 78,72 %
14.02.2023 14:44 12,8 C 15,6 C 7,2 C 69 % 1032,2 hPa 0,0 l/m 2 min 0 min 378 W/m 12,9 km/h (3 Bft) 56,52 %
14.02.2023 14:46 12,8 C 15,6 C 6,7 C 69 % 1032,2 hPa 0,0 l/m 2 min 0 min 377 W/m 6,4 km/h (2 Bft) 74,47 %
14.02.2023 14:48 12,8 C 16,1 C 6,7 C 69 % 1032,2 hPa 0,0 l/m 2 min 0 min 371 W/m 6,4 km/h (2 Bft) 93,62 %
14.02.2023 14:50 12,8 C 15,6 C 6,7 C 69 % 1032,1 hPa 0,0 l/m 2 min 0 min 366 W/m 6,4 km/h (2 Bft) 95,74 %
14.02.2023 14:52 12,8 C 15,0 C 7,2 C 69 % 1032,1 hPa 0,0 l/m 2 min 0 min 363 W/m 9,7 km/h (2 Bft) 93,62 %
14.02.2023 14:54 12,8 C 15,6 C 7,2 C 69 % 1032,1 hPa 0,0 l/m 2 min 0 min 361 W/m 6,4 km/h (2 Bft) 97,87 %
14.02.2023 14:56 12,9 C 15,0 C 7,2 C 69 % 1032,1 hPa 0,0 l/m 2 min 0 min 357 W/m 6,4 km/h (2 Bft) 97,87 %
14.02.2023 14:58 12,9 C 14,4 C 7,2 C 69 % 1032,0 hPa 0,0 l/m 2 min 0 min 354 W/m 6,4 km/h (2 Bft) 95,65 %
14.02.2023 15:00 12,9 C 13,9 C 7,2 C 69 % 1032,0 hPa 0,0 l/m 2 min 0 min 349 W/m 12,9 km/h (3 Bft) 95,74 %
14.02.2023 15:02 12,9 C 14,4 C 7,2 C 69 % 1032,0 hPa 0,0 l/m 2 min 0 min 346 W/m 6,4 km/h (2 Bft) 97,87 %
14.02.2023 15:04 12,9 C 15,6 C 7,2 C 69 % 1032,0 hPa 0,0 l/m 2 min 0 min 341 W/m 6,4 km/h (2 Bft) 97,87 %
14.02.2023 15:06 12,9 C 16,1 C 7,2 C 69 % 1032,0 hPa 0,0 l/m 2 min 0 min 339 W/m 6,4 km/h (2 Bft) 96,55 %
14.02.2023 15:08 12,9 C 15,6 C 7,2 C 69 % 1032,0 hPa 0,0 l/m 2 min 0 min 338 W/m 12,9 km/h (3 Bft) 91,67 %
14.02.2023 15:10 12,9 C 15,0 C 7,2 C 68 % 1032,0 hPa 0,0 l/m 2 min 0 min 328 W/m 6,4 km/h (2 Bft) 97,83 %
14.02.2023 15:12 12,9 C 15,0 C 7,2 C 69 % 1032,0 hPa 0,0 l/m 2 min 0 min 263 W/m 12,9 km/h (3 Bft) 97,87 %
14.02.2023 15:14 12,9 C 14,4 C 7,2 C 68 % 1032,0 hPa 0,0 l/m 2 min 0 min 309 W/m 16,1 km/h (3 Bft) 95,74 %
14.02.2023 15:16 12,9 C 13,9 C 7,2 C 68 % 1031,9 hPa 0,0 l/m 2 min 0 min 318 W/m 6,4 km/h (2 Bft) 95,74 %
14.02.2023 15:18 12,9 C 14,4 C 7,2 C 68 % 1031,9 hPa 0,0 l/m 2 min 0 min 314 W/m 6,4 km/h (2 Bft) 68,09 %
14.02.2023 15:20 12,9 C 13,9 C 7,2 C 68 % 1031,9 hPa 0,0 l/m 2 min 0 min 310 W/m 12,9 km/h (3 Bft) 61,70 %
14.02.2023 15:22 12,9 C 13,9 C 7,2 C 68 % 1031,9 hPa 0,0 l/m 2 min 0 min 306 W/m 3,2 km/h (1 Bft) 58,70 %
14.02.2023 15:24 12,9 C 13,3 C 7,2 C 68 % 1031,9 hPa 0,0 l/m 2 min 0 min 303 W/m 6,4 km/h (2 Bft) 85,11 %
14.02.2023 15:26 12,9 C 13,3 C 7,2 C 69 % 1031,9 hPa 0,0 l/m 2 min 0 min 248 W/m 6,4 km/h (2 Bft) 93,62 %
14.02.2023 15:28 12,9 C 13,3 C 7,2 C 68 % 1031,8 hPa 0,0 l/m 2 min 0 min 272 W/m 6,4 km/h (2 Bft) 95,74 %
14.02.2023 15:30 12,9 C 13,3 C 7,2 C 68 % 1031,7 hPa 0,0 l/m 2 min 0 min 290 W/m 6,4 km/h (2 Bft) 74,47 %
14.02.2023 15:32 12,8 C 13,9 C 6,7 C 68 % 1031,7 hPa 0,0 l/m 2 min 0 min 252 W/m 6,4 km/h (2 Bft) 72,34 %
14.02.2023 15:34 12,8 C 13,9 C 6,7 C 68 % 1031,7 hPa 0,0 l/m 2 min 0 min 233 W/m 12,9 km/h (3 Bft) 93,62 %
14.02.2023 15:36 12,8 C 13,3 C 6,7 C 68 % 1031,7 hPa 0,0 l/m 2 min 0 min 273 W/m 6,4 km/h (2 Bft) 95,65 %
14.02.2023 15:38 12,8 C 13,3 C 6,7 C 68 % 1031,7 hPa 0,0 l/m 2 min 0 min 270 W/m 6,4 km/h (2 Bft) 95,74 %
14.02.2023 15:40 12,7 C 13,3 C 7,2 C 68 % 1031,6 hPa 0,0 l/m 2 min 0 min 266 W/m 12,9 km/h (3 Bft) 78,72 %
14.02.2023 15:42 12,7 C 13,3 C 7,2 C 68 % 1031,6 hPa 0,0 l/m 2 min 0 min 261 W/m 6,4 km/h (2 Bft) 51,06 %
14.02.2023 15:44 12,7 C 12,8 C 6,7 C 68 % 1031,6 hPa 0,0 l/m 2 min 0 min 255 W/m 6,4 km/h (2 Bft) 91,49 %
14.02.2023 15:46 12,7 C 12,8 C 6,7 C 69 % 1031,6 hPa 0,0 l/m 2 min 0 min 238 W/m 6,4 km/h (2 Bft) 93,62 %
14.02.2023 15:48 12,7 C 12,2 C 6,7 C 69 % 1031,6 hPa 0,0 l/m 2 min 0 min 201 W/m 12,9 km/h (3 Bft) 84,78 %
14.02.2023 15:50 12,7 C 12,2 C 7,2 C 69 % 1031,6 hPa 0,0 l/m 2 min 0 min 232 W/m 6,4 km/h (2 Bft) 93,62 %
14.02.2023 15:52 12,7 C 11,7 C 6,7 C 69 % 1031,5 hPa 0,0 l/m 2 min 0 min 231 W/m 6,4 km/h (2 Bft) 80,85 %
14.02.2023 15:54 12,7 C 11,7 C 6,7 C 69 % 1031,5 hPa 0,0 l/m 2 min 0 min 227 W/m 6,4 km/h (2 Bft) 93,62 %
14.02.2023 15:56 12,6 C 11,7 C 6,7 C 69 % 1031,5 hPa 0,0 l/m 2 min 0 min 221 W/m 6,4 km/h (2 Bft) 97,87 %
14.02.2023 15:58 12,6 C 11,7 C 6,7 C 69 % 1031,4 hPa 0,0 l/m 2 min 0 min 215 W/m 6,4 km/h (2 Bft) 97,87 %
14.02.2023 16:00 12,6 C 11,7 C 6,7 C 69 % 1031,4 hPa 0,0 l/m 2 min 0 min 203 W/m 6,4 km/h (2 Bft) 95,74 %
14.02.2023 16:02 12,6 C 11,7 C 6,7 C 69 % 1031,4 hPa 0,0 l/m 2 min 0 min 133 W/m 6,4 km/h (2 Bft) 97,83 %
14.02.2023 16:04 12,6 C 11,7 C 6,7 C 69 % 1031,4 hPa 0,0 l/m 2 min 0 min 186 W/m 6,4 km/h (2 Bft) 100,00 %
14.02.2023 16:06 12,5 C 11,7 C 6,7 C 69 % 1031,4 hPa 0,0 l/m 2 min 0 min 189 W/m 12,9 km/h (3 Bft) 100,00 %
14.02.2023 16:09 12,4 C 11,1 C 6,7 C 69 % 1031,3 hPa 0,0 l/m 3 min 0 min 121 W/m 6,4 km/h (2 Bft) 100,00 %
14.02.2023 16:12 12,4 C 11,1 C 6,7 C 69 % 1031,3 hPa 0,0 l/m 0 min 0 min 89 W/m 3,2 km/h (1 Bft) 98,57 %
14.02.2023 16:14 12,4 C 11,1 C 6,7 C 70 % 1031,3 hPa 0,0 l/m 0 min 0 min 100 W/m 6,4 km/h (2 Bft) 97,87 %
14.02.2023 16:16 12,4 C 11,1 C 6,7 C 70 % 1031,3 hPa 0,0 l/m 0 min 0 min 80 W/m 3,2 km/h (1 Bft) 97,14 %
14.02.2023 16:18 12,3 C 11,1 C 6,7 C 70 % 1031,3 hPa 0,0 l/m 0 min 0 min 55 W/m 3,2 km/h (1 Bft) 100,00 %
14.02.2023 16:20 12,3 C 11,1 C 6,7 C 70 % 1031,2 hPa 0,0 l/m 0 min 0 min 44 W/m 3,2 km/h (1 Bft) 100,00 %
14.02.2023 16:22 12,2 C 11,1 C 6,7 C 70 % 1031,1 hPa 0,0 l/m 0 min 0 min 40 W/m 3,2 km/h (1 Bft) 100,00 %
14.02.2023 16:24 12,2 C 11,1 C 6,1 C 70 % 1031,2 hPa 0,0 l/m 0 min 0 min 39 W/m 3,2 km/h (1 Bft) 100,00 %
14.02.2023 16:26 12,1 C 11,1 C 6,1 C 70 % 1031,2 hPa 0,0 l/m 0 min 0 min 39 W/m 3,2 km/h (1 Bft) 100,00 %
14.02.2023 16:28 12,1 C 11,1 C 6,7 C 70 % 1031,2 hPa 0,0 l/m 0 min 0 min 37 W/m 6,4 km/h (2 Bft) 100,00 %
14.02.2023 16:30 12,1 C 11,1 C 6,7 C 70 % 1031,2 hPa 0,0 l/m 0 min 0 min 37 W/m 3,2 km/h (1 Bft) 97,87 %
14.02.2023 16:32 12,1 C 11,1 C 6,7 C 70 % 1031,2 hPa 0,0 l/m 0 min 0 min 35 W/m 3,2 km/h (1 Bft) 100,00 %
14.02.2023 16:34 12,1 C 11,1 C 6,7 C 70 % 1031,2 hPa 0,0 l/m 0 min 0 min 35 W/m 6,4 km/h (2 Bft) 100,00 %
14.02.2023 16:36 12,0 C 11,1 C 6,7 C 70 % 1031,2 hPa 0,0 l/m 0 min 0 min 35 W/m 3,2 km/h (1 Bft) 100,00 %
14.02.2023 16:38 12,0 C 11,1 C 6,7 C 70 % 1031,2 hPa 0,0 l/m 0 min 0 min 34 W/m 12,9 km/h (3 Bft) 97,87 %
14.02.2023 16:40 12,0 C 11,1 C 6,7 C 70 % 1031,2 hPa 0,0 l/m 0 min 0 min 33 W/m 3,2 km/h (1 Bft) 100,00 %
14.02.2023 16:42 11,9 C 11,1 C 6,7 C 70 % 1031,2 hPa 0,0 l/m 0 min 0 min 32 W/m 6,4 km/h (2 Bft) 100,00 %
14.02.2023 16:44 11,9 C 11,1 C 6,7 C 71 % 1031,2 hPa 0,0 l/m 0 min 0 min 32 W/m 6,4 km/h (2 Bft) 100,00 %
14.02.2023 16:46 11,9 C 11,1 C 6,1 C 71 % 1031,2 hPa 0,0 l/m 0 min 0 min 32 W/m 3,2 km/h (1 Bft) 100,00 %
14.02.2023 16:48 11,9 C 11,1 C 6,1 C 71 % 1031,3 hPa 0,0 l/m 0 min 0 min 32 W/m 6,4 km/h (2 Bft) 97,87 %
14.02.2023 16:50 11,9 C 11,1 C 6,1 C 71 % 1031,2 hPa 0,0 l/m 0 min 0 min 30 W/m 3,2 km/h (1 Bft) 97,87 %
14.02.2023 16:52 11,8 C 10,6 C 5,6 C 71 % 1031,3 hPa 0,0 l/m 0 min 0 min 30 W/m 0,0 km/h (0 Bft) 95,74 %
14.02.2023 16:54 11,8 C 10,6 C 5,6 C 71 % 1031,3 hPa 0,0 l/m 0 min 0 min 30 W/m 6,4 km/h (2 Bft) 97,96 %
14.02.2023 16:56 11,8 C 10,6 C 5,6 C 72 % 1031,3 hPa 0,0 l/m 0 min 0 min 28 W/m 6,4 km/h (2 Bft) 95,74 %
14.02.2023 16:58 11,7 C 10,6 C 5,6 C 72 % 1031,3 hPa 0,0 l/m 0 min 0 min 28 W/m 6,4 km/h (2 Bft) 93,18 %
14.02.2023 17:00 11,7 C 10,6 C 5,6 C 72 % 1031,3 hPa 0,0 l/m 0 min 0 min 26 W/m 0,0 km/h (0 Bft) 97,87 %
14.02.2023 17:02 11,7 C 10,6 C 5,0 C 72 % 1031,3 hPa 0,0 l/m 0 min 0 min 26 W/m 0,0 km/h (0 Bft) 97,87 %
14.02.2023 17:04 11,7 C 10,0 C 5,0 C 72 % 1031,3 hPa 0,0 l/m 0 min 0 min 25 W/m 3,2 km/h (1 Bft) 97,87 %
14.02.2023 17:06 11,6 C 10,0 C 5,0 C 72 % 1031,3 hPa 0,0 l/m 0 min 0 min 25 W/m 3,2 km/h (1 Bft) 98,28 %
14.02.2023 17:08 11,6 C 10,0 C 4,4 C 72 % 1031,3 hPa 0,0 l/m 0 min 0 min 24 W/m 0,0 km/h (0 Bft) 91,43 %
14.02.2023 17:10 11,6 C 10,0 C 4,4 C 72 % 1031,3 hPa 0,0 l/m 0 min 0 min 23 W/m 3,2 km/h (1 Bft) 97,87 %
14.02.2023 17:12 11,6 C 10,0 C 4,4 C 72 % 1031,3 hPa 0,0 l/m 0 min 0 min 21 W/m 0,0 km/h (0 Bft) 98,18 %
14.02.2023 17:14 11,5 C 9,4 C 4,4 C 72 % 1031,3 hPa 0,0 l/m 0 min 0 min 21 W/m 0,0 km/h (0 Bft) 100,00 %
14.02.2023 17:16 11,5 C 9,4 C 3,9 C 72 % 1031,3 hPa 0,0 l/m 0 min 0 min 20 W/m 0,0 km/h (0 Bft) 100,00 %
14.02.2023 17:18 11,4 C 9,4 C 3,9 C 72 % 1031,3 hPa 0,0 l/m 0 min 0 min 19 W/m 0,0 km/h (0 Bft) 100,00 %
14.02.2023 17:20 11,4 C 8,9 C 3,9 C 72 % 1031,3 hPa 0,0 l/m 0 min 0 min 18 W/m 0,0 km/h (0 Bft) 100,00 %
14.02.2023 17:22 11,4 C 8,9 C 3,9 C 72 % 1031,4 hPa 0,0 l/m 0 min 0 min 17 W/m 0,0 km/h (0 Bft) 100,00 %
14.02.2023 17:24 11,4 C 8,9 C 3,9 C 72 % 1031,3 hPa 0,0 l/m 0 min 0 min 16 W/m 0,0 km/h (0 Bft) 97,87 %
14.02.2023 17:26 11,3 C 8,9 C 3,3 C 72 % 1031,3 hPa 0,0 l/m 0 min 0 min 15 W/m 0,0 km/h (0 Bft) 100,00 %
14.02.2023 17:28 11,3 C 8,9 C 3,3 C 72 % 1031,3 hPa 0,0 l/m 0 min 0 min 14 W/m 0,0 km/h (0 Bft) 97,87 %
14.02.2023 17:30 11,2 C 8,9 C 3,3 C 72 % 1031,3 hPa 0,0 l/m 0 min 0 min 12 W/m 3,2 km/h (1 Bft) 97,87 %
14.02.2023 17:32 11,2 C 8,9 C 3,3 C 73 % 1031,3 hPa 0,0 l/m 0 min 0 min 12 W/m 0,0 km/h (0 Bft) 100,00 %
14.02.2023 17:34 11,1 C 8,3 C 3,3 C 73 % 1031,3 hPa 0,0 l/m 0 min 0 min 11 W/m 3,2 km/h (1 Bft) 100,00 %
14.02.2023 17:36 11,1 C 8,3 C 2,8 C 73 % 1031,3 hPa 0,0 l/m 0 min 0 min 11 W/m 0,0 km/h (0 Bft) 100,00 %
14.02.2023 17:38 11,0 C 8,3 C 2,8 C 73 % 1031,3 hPa 0,0 l/m 0 min 0 min 9 W/m 0,0 km/h (0 Bft) 97,87 %
14.02.2023 17:40 10,9 C 8,3 C 2,8 C 73 % 1031,3 hPa 0,0 l/m 0 min 0 min 8 W/m 0,0 km/h (0 Bft) 97,83 %
14.02.2023 17:42 10,9 C 7,8 C 2,8 C 73 % 1031,3 hPa 0,0 l/m 0 min 0 min 7 W/m 0,0 km/h (0 Bft) 97,87 %
14.02.2023 17:44 10,8 C 7,8 C 2,8 C 73 % 1031,2 hPa 0,0 l/m 0 min 0 min 7 W/m 0,0 km/h (0 Bft) 97,87 %
14.02.2023 17:46 10,8 C 7,8 C 2,8 C 73 % 1031,2 hPa 0,0 l/m 0 min 0 min 5 W/m 0,0 km/h (0 Bft) 93,62 %
14.02.2023 17:48 10,7 C 7,8 C 2,2 C 73 % 1031,2 hPa 0,0 l/m 0 min 0 min 5 W/m 0,0 km/h (0 Bft) 97,87 %
14.02.2023 17:50 10,6 C 7,2 C 2,2 C 73 % 1031,3 hPa 0,0 l/m 0 min 0 min 2 W/m 0,0 km/h (0 Bft) 95,74 %
14.02.2023 17:52 10,6 C 7,2 C 2,2 C 73 % 1031,3 hPa 0,0 l/m 0 min 0 min 0 W/m 0,0 km/h (0 Bft) 93,62 %
14.02.2023 17:54 10,4 C 7,2 C 2,2 C 73 % 1031,3 hPa 0,0 l/m 0 min 0 min 0 W/m 0,0 km/h (0 Bft) 50,00 %
14.02.2023 17:56 10,3 C 7,2 C 2,2 C 74 % 1031,3 hPa 0,0 l/m 0 min 0 min 0 W/m 0,0 km/h (0 Bft) 94,00 %
14.02.2023 17:58 10,3 C 7,2 C 2,2 C 74 % 1031,3 hPa 0,0 l/m 0 min 0 min 0 W/m 0,0 km/h (0 Bft) 91,49 %
14.02.2023 18:00 10,2 C 6,7 C 2,2 C 74 % 1031,3 hPa 0,0 l/m 0 min 0 min 0 W/m 0,0 km/h (0 Bft) 95,74 %
14.02.2023 18:02 10,1 C 6,7 C 1,7 C 74 % 1031,3 hPa 0,0 l/m 0 min 0 min 0 W/m 3,2 km/h (1 Bft) 95,74 %
14.02.2023 18:04 10,0 C 6,7 C 1,7 C 75 % 1031,4 hPa 0,0 l/m 0 min 0 min 0 W/m 0,0 km/h (0 Bft) 95,74 %
14.02.2023 18:07 9,9 C 6,7 C 1,7 C 75 % 1031,4 hPa 0,0 l/m 0 min 0 min 0 W/m 0,0 km/h (0 Bft) 95,77 %
14.02.2023 18:08 9,8 C 6,7 C 1,7 C 75 % 1031,4 hPa 0,0 l/m 0 min 0 min 0 W/m 0,0 km/h (0 Bft) 91,67 %
14.02.2023 18:12 9,7 C 6,7 C 1,7 C 75 % 1031,4 hPa 0,0 l/m 0 min 0 min 0 W/m 0,0 km/h (0 Bft) 98,04 %
14.02.2023 18:14 9,6 C 6,7 C 1,7 C 76 % 1031,4 hPa 0,0 l/m 0 min 0 min 0 W/m 0,0 km/h (0 Bft) 97,87 %
14.02.2023 18:16 9,6 C 6,1 C 1,7 C 76 % 1031,4 hPa 0,0 l/m 0 min 0 min 0 W/m 0,0 km/h (0 Bft) 97,83 %
14.02.2023 18:18 9,4 C 6,1 C 1,7 C 76 % 1031,4 hPa 0,0 l/m 0 min 0 min 0 W/m 0,0 km/h (0 Bft) 95,74 %
14.02.2023 18:20 9,4 C 6,1 C 1,7 C 76 % 1031,4 hPa 0,0 l/m 0 min 0 min 0 W/m 0,0 km/h (0 Bft) 93,62 %
14.02.2023 18:22 9,3 C 6,1 C 1,7 C 76 % 1031,5 hPa 0,0 l/m 0 min 0 min 0 W/m 0,0 km/h (0 Bft) 93,62 %
14.02.2023 18:24 9,2 C 6,1 C 1,1 C 76 % 1031,5 hPa 0,0 l/m 0 min 0 min 0 W/m 0,0 km/h (0 Bft) 95,74 %
14.02.2023 18:26 9,2 C 6,1 C 1,1 C 76 % 1031,5 hPa 0,0 l/m 0 min 0 min 0 W/m 0,0 km/h (0 Bft) 95,74 %
14.02.2023 18:28 9,1 C 6,1 C 1,1 C 76 % 1031,5 hPa 0,0 l/m 0 min 0 min 0 W/m 0,0 km/h (0 Bft) 95,74 %
14.02.2023 18:30 8,9 C 5,6 C 1,1 C 77 % 1031,5 hPa 0,0 l/m 0 min 0 min 0 W/m 0,0 km/h (0 Bft) 95,65 %
14.02.2023 18:32 8,9 C 5,6 C 1,1 C 77 % 1031,5 hPa 0,0 l/m 0 min 0 min 0 W/m 0,0 km/h (0 Bft) 95,74 %
14.02.2023 18:34 8,8 C 5,6 C 1,1 C 77 % 1031,5 hPa 0,0 l/m 0 min 0 min 0 W/m 0,0 km/h (0 Bft) 95,74 %
14.02.2023 18:36 8,7 C 5,6 C 1,1 C 77 % 1031,5 hPa 0,0 l/m 0 min 0 min 0 W/m 0,0 km/h (0 Bft) 93,62 %
14.02.2023 18:38 8,6 C 5,6 C 1,1 C 78 % 1031,5 hPa 0,0 l/m 0 min 0 min 0 W/m 0,0 km/h (0 Bft) 95,74 %
14.02.2023 18:40 8,6 C 5,6 C 1,1 C 78 % 1031,5 hPa 0,0 l/m 0 min 0 min 0 W/m 0,0 km/h (0 Bft) 93,62 %
14.02.2023 18:42 8,4 C 5,6 C 1,1 C 78 % 1031,5 hPa 0,0 l/m 0 min 0 min 0 W/m 0,0 km/h (0 Bft) 93,62 %
14.02.2023 18:44 8,4 C 5,6 C 0,6 C 78 % 1031,5 hPa 0,0 l/m 0 min 0 min 0 W/m 0,0 km/h (0 Bft) 95,65 %
14.02.2023 18:46 8,3 C 5,6 C 0,6 C 78 % 1031,5 hPa 0,0 l/m 0 min 0 min 0 W/m 0,0 km/h (0 Bft) 97,87 %
14.02.2023 18:48 8,2 C 5,6 C 0,6 C 78 % 1031,5 hPa 0,0 l/m 0 min 0 min 0 W/m 0,0 km/h (0 Bft) 97,87 %
14.02.2023 18:50 8,1 C 5,6 C 0,6 C 79 % 1031,5 hPa 0,0 l/m 0 min 0 min 0 W/m 0,0 km/h (0 Bft) 97,87 %
14.02.2023 18:52 8,0 C 5,6 C 0,6 C 79 % 1031,5 hPa 0,0 l/m 0 min 0 min 0 W/m 0,0 km/h (0 Bft) 100,00 %
14.02.2023 18:54 7,9 C 5,6 C 0,6 C 79 % 1031,4 hPa 0,0 l/m 0 min 0 min 0 W/m 0,0 km/h (0 Bft) 97,87 %
14.02.2023 18:56 7,9 C 5,0 C 0,6 C 80 % 1031,4 hPa 0,0 l/m 0 min 0 min 0 W/m 0,0 km/h (0 Bft) 100,00 %
14.02.2023 18:58 7,8 C 5,0 C 0,6 C 80 % 1031,4 hPa 0,0 l/m 0 min 0 min 0 W/m 0,0 km/h (0 Bft) 97,83 %
14.02.2023 19:00 7,8 C 5,0 C 0,6 C 80 % 1031,4 hPa 0,0 l/m 0 min 0 min 0 W/m 0,0 km/h (0 Bft) 100,00 %
14.02.2023 19:02 7,7 C 5,0 C 0,6 C 80 % 1031,4 hPa 0,0 l/m 0 min 0 min 0 W/m 0,0 km/h (0 Bft) 98,11 %
14.02.2023 19:04 7,6 C 5,0 C 0,6 C 80 % 1031,4 hPa 0,0 l/m 0 min 0 min 0 W/m 0,0 km/h (0 Bft) 100,00 %
14.02.2023 19:06 7,6 C 5,0 C 0,6 C 80 % 1031,4 hPa 0,0 l/m 0 min 0 min 0 W/m 0,0 km/h (0 Bft) 100,00 %
14.02.2023 19:08 7,5 C 5,0 C 0,6 C 80 % 1031,4 hPa 0,0 l/m 0 min 0 min 0 W/m 0,0 km/h (0 Bft) 95,74 %
14.02.2023 19:10 7,4 C 5,0 C 0,6 C 80 % 1031,4 hPa 0,0 l/m 0 min 0 min 0 W/m 0,0 km/h (0 Bft) 97,87 %
14.02.2023 19:12 7,3 C 4,4 C 0,6 C 80 % 1031,5 hPa 0,0 l/m 0 min 0 min 0 W/m 0,0 km/h (0 Bft) 100,00 %
14.02.2023 19:14 7,3 C 4,4 C 0,6 C 80 % 1031,4 hPa 0,0 l/m 0 min 0 min 0 W/m 0,0 km/h (0 Bft) 95,74 %
14.02.2023 19:16 7,2 C 4,4 C 0,6 C 80 % 1031,5 hPa 0,0 l/m 0 min 0 min 0 W/m 0,0 km/h (0 Bft) 95,74 %
14.02.2023 19:18 7,2 C 4,4 C 0,6 C 81 % 1031,5 hPa 0,0 l/m 0 min 0 min 0 W/m 0,0 km/h (0 Bft) 100,00 %
14.02.2023 19:20 7,1 C 4,4 C 0,6 C 81 % 1031,4 hPa 0,0 l/m 0 min 0 min 0 W/m 0,0 km/h (0 Bft) 100,00 %
14.02.2023 19:22 7,0 C 4,4 C 0,6 C 81 % 1031,4 hPa 0,0 l/m 0 min 0 min 0 W/m 0,0 km/h (0 Bft) 100,00 %
14.02.2023 19:24 6,9 C 4,4 C 0,0 C 81 % 1031,4 hPa 0,0 l/m 0 min 0 min 0 W/m 0,0 km/h (0 Bft) 97,83 %
14.02.2023 19:26 6,9 C 4,4 C 0,0 C 81 % 1031,4 hPa 0,0 l/m 0 min 0 min 0 W/m 0,0 km/h (0 Bft) 95,74 %
14.02.2023 19:28 6,8 C 4,4 C 0,0 C 81 % 1031,4 hPa 0,0 l/m 0 min 0 min 0 W/m 0,0 km/h (0 Bft) 93,62 %
14.02.2023 19:30 6,8 C 4,4 C 0,0 C 81 % 1031,4 hPa 0,0 l/m 0 min 0 min 0 W/m 0,0 km/h (0 Bft) 97,87 %
14.02.2023 19:32 6,7 C 4,4 C 0,0 C 81 % 1031,4 hPa 0,0 l/m 0 min 0 min 0 W/m 0,0 km/h (0 Bft) 93,62 %
14.02.2023 19:34 6,6 C 3,9 C 0,0 C 81 % 1031,4 hPa 0,0 l/m 0 min 0 min 0 W/m 0,0 km/h (0 Bft) 97,87 %
14.02.2023 19:36 6,6 C 3,9 C 0,0 C 81 % 1031,3 hPa 0,0 l/m 0 min 0 min 0 W/m 0,0 km/h (0 Bft) 95,74 %
14.02.2023 19:38 6,5 C 3,9 C 0,0 C 82 % 1031,3 hPa 0,0 l/m 0 min 0 min 0 W/m 0,0 km/h (0 Bft) 97,83 %
14.02.2023 19:40 6,4 C 3,9 C 0,0 C 82 % 1031,3 hPa 0,0 l/m 0 min 0 min 0 W/m 0,0 km/h (0 Bft) 95,74 %
14.02.2023 19:42 6,4 C 3,9 C 0,0 C 82 % 1031,3 hPa 0,0 l/m 0 min 0 min 0 W/m 0,0 km/h (0 Bft) 95,12 %
14.02.2023 19:44 6,3 C 3,9 C 0,0 C 82 % 1031,3 hPa 0,0 l/m 0 min 0 min 0 W/m 0,0 km/h (0 Bft) 95,74 %
14.02.2023 19:46 6,3 C 3,9 C 0,0 C 82 % 1031,2 hPa 0,0 l/m 0 min 0 min 0 W/m 0,0 km/h (0 Bft) 98,00 %
14.02.2023 19:48 6,2 C 3,9 C 0,0 C 83 % 1031,3 hPa 0,0 l/m 0 min 0 min 0 W/m 0,0 km/h (0 Bft) 94,55 %
14.02.2023 19:50 6,1 C 3,9 C 0,0 C 83 % 1031,2 hPa 0,0 l/m 0 min 0 min 0 W/m 0,0 km/h (0 Bft) 97,83 %
14.02.2023 19:52 6,1 C 3,9 C 0,0 C 83 % 1031,1 hPa 0,0 l/m 0 min 0 min 0 W/m 0,0 km/h (0 Bft) 97,87 %
14.02.2023 19:54 6,0 C 3,9 C 0,0 C 83 % 1031,1 hPa 0,0 l/m 0 min 0 min 0 W/m 0,0 km/h (0 Bft) 97,87 %
14.02.2023 19:56 5,9 C 3,9 C 0,0 C 83 % 1031,1 hPa 0,0 l/m 0 min 0 min 0 W/m 3,2 km/h (1 Bft) 97,87 %
14.02.2023 19:58 5,9 C 3,9 C 0,0 C 83 % 1031,1 hPa 0,0 l/m 0 min 0 min 0 W/m 3,2 km/h (1 Bft) 97,87 %
14.02.2023 20:00 5,8 C 3,9 C 0,0 C 84 % 1031,1 hPa 0,0 l/m 0 min 0 min 0 W/m 0,0 km/h (0 Bft) 95,74 %
14.02.2023 20:02 5,8 C 3,9 C 0,0 C 84 % 1031,1 hPa 0,0 l/m 0 min 0 min 0 W/m 0,0 km/h (0 Bft) 97,87 %
14.02.2023 20:04 5,7 C 3,9 C 0,0 C 84 % 1031,0 hPa 0,0 l/m 0 min 0 min 0 W/m 0,0 km/h (0 Bft) 95,65 %
14.02.2023 20:06 5,7 C 3,9 C 0,0 C 84 % 1031,0 hPa 0,0 l/m 0 min 0 min 0 W/m 0,0 km/h (0 Bft) 97,67 %
14.02.2023 20:08 5,7 C 3,9 C 0,0 C 85 % 1031,0 hPa 0,0 l/m 0 min 0 min 0 W/m 0,0 km/h (0 Bft) 95,74 %
14.02.2023 20:10 5,7 C 4,4 C 0,0 C 85 % 1031,0 hPa 0,0 l/m 0 min 0 min 0 W/m 3,2 km/h (1 Bft) 94,29 %
14.02.2023 20:12 5,6 C 5,0 C 0,6 C 85 % 1031,0 hPa 0,0 l/m 0 min 0 min 0 W/m 3,2 km/h (1 Bft) 95,74 %
14.02.2023 20:14 5,6 C 5,0 C 0,6 C 86 % 1031,0 hPa 0,0 l/m 0 min 0 min 0 W/m 3,2 km/h (1 Bft) 97,87 %
14.02.2023 20:16 5,6 C 5,6 C 1,1 C 86 % 1031,0 hPa 0,0 l/m 0 min 0 min 0 W/m 6,4 km/h (2 Bft) 100,00 %
14.02.2023 20:18 5,6 C 5,6 C 1,1 C 87 % 1031,0 hPa 0,0 l/m 0 min 0 min 0 W/m 6,4 km/h (2 Bft) 100,00 %
14.02.2023 20:20 5,7 C 5,6 C 1,7 C 87 % 1030,9 hPa 0,0 l/m 0 min 0 min 0 W/m 3,2 km/h (1 Bft) 100,00 %
14.02.2023 20:22 5,7 C 5,6 C 1,7 C 87 % 1030,9 hPa 0,0 l/m 0 min 0 min 0 W/m 3,2 km/h (1 Bft) 93,62 %
14.02.2023 20:24 5,7 C 5,6 C 1,7 C 87 % 1030,9 hPa 0,0 l/m 0 min 0 min 0 W/m 6,4 km/h (2 Bft) 95,65 %
14.02.2023 20:26 5,8 C 6,1 C 1,7 C 87 % 1030,9 hPa 0,0 l/m 0 min 0 min 0 W/m 6,4 km/h (2 Bft) 100,00 %
14.02.2023 20:28 5,8 C 6,1 C 1,7 C 87 % 1030,9 hPa 0,0 l/m 0 min 0 min 0 W/m 6,4 km/h (2 Bft) 40,43 %
14.02.2023 20:30 5,8 C 6,1 C 1,7 C 88 % 1030,8 hPa 0,0 l/m 0 min 0 min 0 W/m 3,2 km/h (1 Bft) 31,91 %
14.02.2023 20:32 5,8 C 6,1 C 2,2 C 88 % 1030,9 hPa 0,0 l/m 0 min 0 min 0 W/m 3,2 km/h (1 Bft) 72,34 %
14.02.2023 20:34 5,9 C 6,1 C 2,2 C 88 % 1030,9 hPa 0,0 l/m 0 min 0 min 0 W/m 3,2 km/h (1 Bft) 97,87 %
14.02.2023 20:36 5,9 C 5,6 C 1,7 C 88 % 1030,9 hPa 0,0 l/m 0 min 0 min 0 W/m 0,0 km/h (0 Bft) 76,60 %
14.02.2023 20:38 5,9 C 5,6 C 1,7 C 88 % 1030,9 hPa 0,0 l/m 0 min 0 min 0 W/m 3,2 km/h (1 Bft) 80,43 %
14.02.2023 20:40 6,0 C 5,6 C 1,7 C 88 % 1030,9 hPa 0,0 l/m 0 min 0 min 0 W/m 3,2 km/h (1 Bft) 78,72 %
14.02.2023 20:42 6,0 C 5,6 C 1,7 C 88 % 1030,8 hPa 0,0 l/m 0 min 0 min 0 W/m 3,2 km/h (1 Bft) 76,60 %
14.02.2023 20:44 6,1 C 5,6 C 1,7 C 88 % 1030,8 hPa 0,0 l/m 0 min 0 min 0 W/m 3,2 km/h (1 Bft) 93,62 %
14.02.2023 20:46 6,1 C 5,6 C 1,7 C 88 % 1030,8 hPa 0,0 l/m 0 min 0 min 0 W/m 3,2 km/h (1 Bft) 95,74 %
14.02.2023 20:48 6,1 C 5,6 C 1,7 C 88 % 1030,8 hPa 0,0 l/m 0 min 0 min 0 W/m 3,2 km/h (1 Bft) 82,98 %
14.02.2023 20:50 6,1 C 5,6 C 1,7 C 88 % 1030,8 hPa 0,0 l/m 0 min 0 min 0 W/m 6,4 km/h (2 Bft) 97,83 %
14.02.2023 20:52 6,1 C 5,6 C 1,7 C 88 % 1030,7 hPa 0,0 l/m 0 min 0 min 0 W/m 6,4 km/h (2 Bft) 89,36 %
14.02.2023 20:54 6,1 C 5,6 C 1,7 C 88 % 1030,7 hPa 0,0 l/m 0 min 0 min 0 W/m 3,2 km/h (1 Bft) 82,98 %
14.02.2023 20:56 6,1 C 5,6 C 1,7 C 88 % 1030,7 hPa 0,0 l/m 0 min 0 min 0 W/m 3,2 km/h (1 Bft) 74,47 %
14.02.2023 20:58 6,2 C 5,6 C 1,7 C 88 % 1030,7 hPa 0,0 l/m 0 min 0 min 0 W/m 6,4 km/h (2 Bft) 78,72 %
14.02.2023 21:00 6,2 C 5,6 C 2,2 C 87 % 1030,7 hPa 0,0 l/m 0 min 0 min 0 W/m 12,9 km/h (3 Bft) 70,21 %
14.02.2023 21:02 6,2 C 5,6 C 1,7 C 87 % 1030,6 hPa 0,0 l/m 0 min 0 min 0 W/m 3,2 km/h (1 Bft) 57,45 %
14.02.2023 21:04 6,2 C 5,6 C 2,2 C 87 % 1030,6 hPa 0,0 l/m 0 min 0 min 0 W/m 6,4 km/h (2 Bft) 82,61 %
14.02.2023 21:06 6,2 C 5,6 C 2,2 C 87 % 1030,6 hPa 0,0 l/m 0 min 0 min 0 W/m 6,4 km/h (2 Bft) 98,31 %
14.02.2023 21:08 6,2 C 5,6 C 1,7 C 87 % 1030,6 hPa 0,0 l/m 0 min 0 min 0 W/m 6,4 km/h (2 Bft) 80,00 %
14.02.2023 21:10 6,2 C 5,6 C 1,7 C 87 % 1030,6 hPa 0,0 l/m 0 min 0 min 0 W/m 3,2 km/h (1 Bft) 45,83 %
14.02.2023 21:12 6,2 C 5,6 C 1,7 C 87 % 1030,6 hPa 0,0 l/m 0 min 0 min 0 W/m 3,2 km/h (1 Bft) 80,85 %
14.02.2023 21:14 6,2 C 5,6 C 1,7 C 86 % 1030,6 hPa 0,0 l/m 0 min 0 min 0 W/m 6,4 km/h (2 Bft) 82,98 %
14.02.2023 21:16 6,2 C 5,6 C 1,7 C 86 % 1030,6 hPa 0,0 l/m 0 min 0 min 0 W/m 6,4 km/h (2 Bft) 78,72 %
14.02.2023 21:18 6,2 C 5,6 C 1,7 C 86 % 1030,5 hPa 0,0 l/m 0 min 0 min 0 W/m 6,4 km/h (2 Bft) 69,57 %
14.02.2023 21:20 6,2 C 5,6 C 1,7 C 86 % 1030,6 hPa 0,0 l/m 0 min 0 min 0 W/m 6,4 km/h (2 Bft) 59,57 %
14.02.2023 21:22 6,2 C 5,0 C 1,7 C 86 % 1030,5 hPa 0,0 l/m 0 min 0 min 0 W/m 6,4 km/h (2 Bft) 57,45 %
14.02.2023 21:24 6,1 C 5,0 C 1,7 C 86 % 1030,5 hPa 0,0 l/m 0 min 0 min 0 W/m 3,2 km/h (1 Bft) 68,09 %
14.02.2023 21:26 6,1 C 5,0 C 1,7 C 86 % 1030,5 hPa 0,0 l/m 0 min 0 min 0 W/m 6,4 km/h (2 Bft) 74,47 %
14.02.2023 21:28 6,1 C 5,0 C 1,7 C 86 % 1030,5 hPa 0,0 l/m 0 min 0 min 0 W/m 6,4 km/h (2 Bft) 82,98 %
14.02.2023 21:30 6,1 C 5,0 C 1,7 C 86 % 1030,6 hPa 0,0 l/m 0 min 0 min 0 W/m 3,2 km/h (1 Bft) 85,11 %
14.02.2023 21:32 6,1 C 5,0 C 1,7 C 86 % 1030,5 hPa 0,0 l/m 0 min 0 min 0 W/m 3,2 km/h (1 Bft) 76,09 %
14.02.2023 21:34 6,0 C 5,0 C 1,7 C 86 % 1030,5 hPa 0,0 l/m 0 min 0 min 0 W/m 6,4 km/h (2 Bft) 72,34 %
14.02.2023 21:36 6,0 C 5,0 C 1,7 C 86 % 1030,5 hPa 0,0 l/m 0 min 0 min 0 W/m 12,9 km/h (3 Bft) 80,85 %
14.02.2023 21:38 6,0 C 5,0 C 1,7 C 86 % 1030,5 hPa 0,0 l/m 0 min 0 min 0 W/m 3,2 km/h (1 Bft) 51,06 %
14.02.2023 21:40 5,9 C 5,0 C 1,7 C 86 % 1030,6 hPa 0,0 l/m 0 min 0 min 0 W/m 6,4 km/h (2 Bft) 63,83 %
14.02.2023 21:42 5,9 C 5,0 C 1,1 C 86 % 1030,6 hPa 0,0 l/m 0 min 0 min 0 W/m 6,4 km/h (2 Bft) 36,17 %
14.02.2023 21:44 5,9 C 5,0 C 1,1 C 86 % 1030,6 hPa 0,0 l/m 0 min 0 min 0 W/m 6,4 km/h (2 Bft) 71,74 %
14.02.2023 21:46 5,9 C 5,0 C 1,1 C 86 % 1030,6 hPa 0,0 l/m 0 min 0 min 0 W/m 6,4 km/h (2 Bft) 74,47 %
14.02.2023 21:48 5,8 C 5,0 C 1,1 C 86 % 1030,6 hPa 0,0 l/m 0 min 0 min 0 W/m 6,4 km/h (2 Bft) 93,62 %
14.02.2023 21:50 5,8 C 5,0 C 1,1 C 86 % 1030,6 hPa 0,0 l/m 0 min 0 min 0 W/m 6,4 km/h (2 Bft) 89,36 %
14.02.2023 21:52 5,8 C 5,0 C 1,1 C 86 % 1030,5 hPa 0,0 l/m 0 min 0 min 0 W/m 12,9 km/h (3 Bft) 87,23 %
14.02.2023 21:54 5,7 C 5,0 C 1,1 C 86 % 1030,5 hPa 0,0 l/m 0 min 0 min 0 W/m 12,9 km/h (3 Bft) 78,72 %
14.02.2023 21:56 5,7 C 5,0 C 1,1 C 86 % 1030,5 hPa 0,0 l/m 0 min 0 min 0 W/m 12,9 km/h (3 Bft) 74,47 %
14.02.2023 21:58 5,7 C 5,0 C 1,1 C 86 % 1030,6 hPa 0,0 l/m 0 min 0 min 0 W/m 12,9 km/h (3 Bft) 63,83 %
14.02.2023 22:00 5,6 C 5,0 C 1,1 C 86 % 1030,6 hPa 0,0 l/m 0 min 0 min 0 W/m 9,7 km/h (2 Bft) 74,47 %
14.02.2023 22:02 5,6 C 4,4 C 1,1 C 86 % 1030,5 hPa 0,0 l/m 0 min 0 min 0 W/m 12,9 km/h (3 Bft) 82,98 %
14.02.2023 22:04 5,6 C 4,4 C 1,1 C 86 % 1030,6 hPa 0,0 l/m 0 min 0 min 0 W/m 19,3 km/h (3 Bft) 68,09 %
14.02.2023 22:06 5,6 C 4,4 C 1,1 C 86 % 1030,5 hPa 0,0 l/m 0 min 0 min 0 W/m 16,1 km/h (3 Bft) 72,88 %
14.02.2023 22:08 5,5 C 4,4 C 1,1 C 86 % 1030,6 hPa 0,0 l/m 0 min 0 min 0 W/m 9,7 km/h (2 Bft) 85,71 %
14.02.2023 22:10 5,5 C 4,4 C 1,1 C 86 % 1030,6 hPa 0,0 l/m 0 min 0 min 0 W/m 16,1 km/h (3 Bft) 80,85 %
14.02.2023 22:12 5,5 C 4,4 C 1,1 C 86 % 1030,6 hPa 0,0 l/m 0 min 0 min 0 W/m 12,9 km/h (3 Bft) 72,34 %
14.02.2023 22:14 5,4 C 4,4 C 1,1 C 86 % 1030,6 hPa 0,0 l/m 0 min 0 min 0 W/m 12,9 km/h (3 Bft) 86,96 %
14.02.2023 22:16 5,4 C 4,4 C 1,1 C 86 % 1030,5 hPa 0,0 l/m 0 min 0 min 0 W/m 9,7 km/h (2 Bft) 74,47 %
14.02.2023 22:18 5,4 C 4,4 C 1,1 C 86 % 1030,5 hPa 0,0 l/m 0 min 0 min 0 W/m 16,1 km/h (3 Bft) 80,00 %
14.02.2023 22:20 5,4 C 4,4 C 1,1 C 86 % 1030,6 hPa 0,0 l/m 0 min 0 min 0 W/m 12,9 km/h (3 Bft) 72,34 %
14.02.2023 22:22 5,3 C 4,4 C 1,1 C 86 % 1030,6 hPa 0,0 l/m 0 min 0 min 0 W/m 12,9 km/h (3 Bft) 42,55 %
14.02.2023 22:24 5,3 C 4,4 C 1,1 C 86 % 1030,6 hPa 0,0 l/m 0 min 0 min 0 W/m 12,9 km/h (3 Bft) 69,57 %
14.02.2023 22:26 5,3 C 4,4 C 1,1 C 87 % 1030,6 hPa 0,0 l/m 0 min 0 min 0 W/m 9,7 km/h (2 Bft) 76,60 %
14.02.2023 22:28 5,3 C 4,4 C 1,1 C 87 % 1030,6 hPa 0,0 l/m 0 min 0 min 0 W/m 6,4 km/h (2 Bft) 53,85 %
14.02.2023 22:30 5,2 C 4,4 C 1,1 C 87 % 1030,6 hPa 0,0 l/m 0 min 0 min 0 W/m 12,9 km/h (3 Bft) 42,55 %
14.02.2023 22:32 5,2 C 4,4 C 1,1 C 86 % 1030,6 hPa 0,0 l/m 0 min 0 min 0 W/m 3,2 km/h (1 Bft) 36,17 %
14.02.2023 22:34 5,2 C 3,9 C 0,6 C 86 % 1030,6 hPa 0,0 l/m 0 min 0 min 0 W/m 6,4 km/h (2 Bft) 40,43 %
14.02.2023 22:36 5,2 C 3,9 C 0,6 C 86 % 1030,5 hPa 0,0 l/m 0 min 0 min 0 W/m 6,4 km/h (2 Bft) 44,68 %
14.02.2023 22:38 5,1 C 3,9 C 0,6 C 87 % 1030,5 hPa 0,0 l/m 0 min 0 min 0 W/m 6,4 km/h (2 Bft) 39,13 %
14.02.2023 22:40 5,1 C 3,9 C 0,6 C 87 % 1030,5 hPa 0,0 l/m 0 min 0 min 0 W/m 6,4 km/h (2 Bft) 53,19 %
14.02.2023 22:42 5,1 C 3,9 C 0,6 C 87 % 1030,5 hPa 0,0 l/m 0 min 0 min 0 W/m 12,9 km/h (3 Bft) 29,79 %
14.02.2023 22:44 5,0 C 3,9 C 0,6 C 87 % 1030,4 hPa 0,0 l/m 0 min 0 min 0 W/m 12,9 km/h (3 Bft) 51,06 %
14.02.2023 22:46 5,0 C 3,9 C 0,6 C 87 % 1030,5 hPa 0,0 l/m 0 min 0 min 0 W/m 6,4 km/h (2 Bft) 46,81 %
14.02.2023 22:48 4,9 C 3,9 C 0,6 C 87 % 1030,4 hPa 0,0 l/m 0 min 0 min 0 W/m 6,4 km/h (2 Bft) 42,55 %
14.02.2023 22:50 4,9 C 3,9 C 0,6 C 87 % 1030,3 hPa 0,0 l/m 0 min 0 min 0 W/m 6,4 km/h (2 Bft) 38,30 %
14.02.2023 22:52 4,9 C 3,9 C 0,6 C 87 % 1030,3 hPa 0,0 l/m 0 min 0 min 0 W/m 6,4 km/h (2 Bft) 64,15 %
14.02.2023 22:54 4,8 C 3,9 C 0,6 C 87 % 1030,3 hPa 0,0 l/m 0 min 0 min 0 W/m 12,9 km/h (3 Bft) 78,72 %
14.02.2023 22:56 4,8 C 3,9 C 0,6 C 87 % 1030,3 hPa 0,0 l/m 0 min 0 min 0 W/m 9,7 km/h (2 Bft) 89,36 %
14.02.2023 22:58 4,8 C 3,9 C 0,6 C 87 % 1030,3 hPa 0,0 l/m 0 min 0 min 0 W/m 12,9 km/h (3 Bft) 72,34 %
14.02.2023 23:00 4,7 C 3,9 C 0,6 C 87 % 1030,3 hPa 0,0 l/m 0 min 0 min 0 W/m 6,4 km/h (2 Bft) 93,62 %
14.02.2023 23:02 4,7 C 3,3 C 0,6 C 87 % 1030,3 hPa 0,0 l/m 0 min 0 min 0 W/m 6,4 km/h (2 Bft) 89,58 %
14.02.2023 23:04 4,7 C 3,3 C 0,6 C 87 % 1030,3 hPa 0,0 l/m 0 min 0 min 0 W/m 6,4 km/h (2 Bft) 95,65 %
14.02.2023 23:06 4,6 C 3,3 C 0,0 C 87 % 1030,3 hPa 0,0 l/m 0 min 0 min 0 W/m 6,4 km/h (2 Bft) 85,42 %
14.02.2023 23:08 4,6 C 3,3 C 0,0 C 87 % 1030,3 hPa 0,0 l/m 0 min 0 min 0 W/m 6,4 km/h (2 Bft) 85,11 %
14.02.2023 23:10 4,6 C 3,3 C 0,0 C 87 % 1030,3 hPa 0,0 l/m 0 min 0 min 0 W/m 6,4 km/h (2 Bft) 82,98 %
14.02.2023 23:12 4,5 C 3,3 C 0,0 C 87 % 1030,3 hPa 0,0 l/m 0 min 0 min 0 W/m 12,9 km/h (3 Bft) 95,74 %
14.02.2023 23:14 4,5 C 3,3 C 0,0 C 88 % 1030,3 hPa 0,0 l/m 0 min 0 min 0 W/m 6,4 km/h (2 Bft) 95,74 %
14.02.2023 23:16 4,4 C 3,3 C 0,0 C 88 % 1030,3 hPa 0,0 l/m 0 min 0 min 0 W/m 3,2 km/h (1 Bft) 53,49 %
14.02.2023 23:18 4,4 C 3,3 C 0,0 C 88 % 1030,2 hPa 0,0 l/m 0 min 0 min 0 W/m 6,4 km/h (2 Bft) 97,83 %
14.02.2023 23:20 4,4 C 3,3 C 0,0 C 88 % 1030,2 hPa 0,0 l/m 0 min 0 min 0 W/m 6,4 km/h (2 Bft) 97,87 %
14.02.2023 23:22 4,3 C 3,3 C 0,0 C 88 % 1030,3 hPa 0,0 l/m 0 min 0 min 0 W/m 6,4 km/h (2 Bft) 97,87 %
14.02.2023 23:24 4,3 C 3,3 C 0,0 C 88 % 1030,3 hPa 0,0 l/m 0 min 0 min 0 W/m 9,7 km/h (2 Bft) 93,62 %
14.02.2023 23:26 4,3 C 3,3 C 0,0 C 88 % 1030,3 hPa 0,0 l/m 0 min 0 min 0 W/m 12,9 km/h (3 Bft) 97,96 %
14.02.2023 23:28 4,2 C 3,3 C 0,0 C 88 % 1030,3 hPa 0,0 l/m 0 min 0 min 0 W/m 6,4 km/h (2 Bft) 97,87 %
14.02.2023 23:30 4,2 C 3,3 C 0,0 C 88 % 1030,2 hPa 0,0 l/m 0 min 0 min 0 W/m 12,9 km/h (3 Bft) 95,74 %
14.02.2023 23:32 4,2 C 3,3 C 0,0 C 88 % 1030,2 hPa 0,0 l/m 0 min 0 min 0 W/m 12,9 km/h (3 Bft) 97,22 %
14.02.2023 23:34 4,1 C 3,3 C 0,0 C 88 % 1030,2 hPa 0,0 l/m 0 min 0 min 0 W/m 9,7 km/h (2 Bft) 100,00 %
14.02.2023 23:36 4,1 C 3,3 C 0,0 C 88 % 1030,2 hPa 0,0 l/m 0 min 0 min 0 W/m 12,9 km/h (3 Bft) 100,00 %
14.02.2023 23:38 4,1 C 3,3 C 0,0 C 88 % 1030,2 hPa 0,0 l/m 0 min 0 min 0 W/m 6,4 km/h (2 Bft) 95,74 %
14.02.2023 23:40 4,1 C 3,3 C 0,0 C 88 % 1030,1 hPa 0,0 l/m 0 min 0 min 0 W/m 9,7 km/h (2 Bft) 97,87 %
14.02.2023 23:42 4,0 C 3,3 C 0,0 C 88 % 1030,1 hPa 0,0 l/m 0 min 0 min 0 W/m 9,7 km/h (2 Bft) 97,87 %
14.02.2023 23:44 4,0 C 3,3 C 0,0 C 89 % 1030,1 hPa 0,0 l/m 0 min 0 min 0 W/m 6,4 km/h (2 Bft) 97,87 %
14.02.2023 23:46 3,9 C 2,8 C 0,0 C 89 % 1030,1 hPa 0,0 l/m 0 min 0 min 0 W/m 12,9 km/h (3 Bft) 97,87 %
14.02.2023 23:48 3,9 C 2,8 C 0,0 C 89 % 1030,1 hPa 0,0 l/m 0 min 0 min 0 W/m 16,1 km/h (3 Bft) 97,83 %
14.02.2023 23:50 3,9 C 3,3 C 0,0 C 89 % 1030,1 hPa 0,0 l/m 0 min 0 min 0 W/m 19,3 km/h (3 Bft) 97,87 %
14.02.2023 23:52 3,9 C 2,8 C 0,0 C 89 % 1030,1 hPa 0,0 l/m 0 min 0 min 0 W/m 19,3 km/h (3 Bft) 93,62 %
14.02.2023 23:54 3,9 C 2,8 C 0,0 C 89 % 1030,1 hPa 0,0 l/m 0 min 0 min 0 W/m 12,9 km/h (3 Bft) 95,74 %
14.02.2023 23:56 3,8 C 2,8 C 0,0 C 89 % 1030,1 hPa 0,0 l/m 0 min 0 min 0 W/m 12,9 km/h (3 Bft) 95,74 %
14.02.2023 23:58 3,8 C 2,8 C 0,0 C 89 % 1030,2 hPa 0,0 l/m 0 min 0 min 0 W/m 12,9 km/h (3 Bft) 97,87 %
_ Min-Zeit 08:00 06:20 07:50 15:10 23:40 - - - - 14:06 22:42
Minimum _ 3,4 C 2,8 C -0,6 C 68 % 1030,1 hPa - - - - 0,0 km/h (0 Bft) 29,79 %
_ Max-Zeit 14:56 13:16 12:24 08:58 00:02 00:00 16:09 00:00 13:06 10:36 00:00
Maximum _ 12,9 C 21,1 C 8,9 C 93 % 1035,5 hPa 0,0 l/m 3 min 0 min 468 W/m 25,7 km/h
S (4 Bft)
100,00 %
Durchschnitt _ 7,1 C 7,4 C 2,4 C 83 % 1033,2 hPa #0,0 l/m #5:49 h #0 min. 217 W/m 8,4 km/h (2 Bft) 93,09 %
© 2023 W. Hausmann